Wetterdaten: Donnerstag, 14.01.2021
Datum Zeit Temp. Aussen Temp. o. S. Temp +5cm Feuchte Auss Luftdruck Regen Sonnenschein Regendauer Solar Windben Empfang
14.01.2021 00:00 3,3 C 2,8 C 1,7 C 95 % 1016,5 hPa 0,0 l/m 0 min 0 min 0 W/m 1,6 km/h (1 Bft) 100,00 %
14.01.2021 00:02 3,3 C 2,8 C 1,2 C 95 % 1016,5 hPa 0,0 l/m 0 min 0 min 0 W/m 1,6 km/h (1 Bft) 97,67 %
14.01.2021 00:04 3,3 C 2,8 C 1,2 C 95 % 1016,5 hPa 0,0 l/m 0 min 0 min 0 W/m 0,0 km/h (0 Bft) 85,11 %
14.01.2021 00:08 3,3 C 2,8 C 1,2 C 95 % 1016,4 hPa 0,0 l/m 0 min 0 min 0 W/m 0,0 km/h (0 Bft) 97,87 %
14.01.2021 00:10 3,3 C 2,8 C 1,7 C 95 % 1016,4 hPa 0,0 l/m 0 min 0 min 0 W/m 0,0 km/h (0 Bft) 97,83 %
14.01.2021 00:12 3,3 C 2,8 C 1,2 C 95 % 1016,4 hPa 0,0 l/m 0 min 0 min 0 W/m 0,0 km/h (0 Bft) 95,74 %
14.01.2021 00:14 3,3 C 2,8 C 1,2 C 95 % 1016,4 hPa 0,0 l/m 0 min 0 min 0 W/m 1,6 km/h (1 Bft) 97,87 %
14.01.2021 00:16 3,3 C 2,8 C 1,7 C 95 % 1016,4 hPa 0,0 l/m 0 min 0 min 0 W/m 0,0 km/h (0 Bft) 97,87 %
14.01.2021 00:18 3,2 C 2,8 C 1,7 C 95 % 1016,5 hPa 0,0 l/m 0 min 0 min 0 W/m 3,2 km/h (1 Bft) 97,87 %
14.01.2021 00:20 3,2 C 2,8 C 1,7 C 95 % 1016,5 hPa 0,0 l/m 0 min 0 min 0 W/m 0,0 km/h (0 Bft) 97,87 %
14.01.2021 00:22 3,2 C 2,8 C 1,7 C 95 % 1016,6 hPa 0,0 l/m 0 min 0 min 0 W/m 1,6 km/h (1 Bft) 97,83 %
14.01.2021 00:24 3,2 C 2,8 C 1,7 C 95 % 1016,5 hPa 0,0 l/m 0 min 0 min 0 W/m 0,0 km/h (0 Bft) 95,74 %
14.01.2021 00:26 3,2 C 2,8 C 1,2 C 95 % 1016,5 hPa 0,0 l/m 0 min 0 min 0 W/m 0,0 km/h (0 Bft) 97,87 %
14.01.2021 00:28 3,2 C 2,8 C 1,2 C 95 % 1016,5 hPa 0,0 l/m 0 min 0 min 0 W/m 0,0 km/h (0 Bft) 97,87 %
14.01.2021 00:30 3,1 C 2,8 C 1,7 C 95 % 1016,6 hPa 0,0 l/m 0 min 0 min 0 W/m 0,0 km/h (0 Bft) 97,87 %
14.01.2021 00:32 3,2 C 2,8 C 1,2 C 95 % 1016,7 hPa 0,0 l/m 0 min 0 min 0 W/m 0,0 km/h (0 Bft) 97,87 %
14.01.2021 00:34 3,1 C 2,8 C 1,7 C 95 % 1016,7 hPa 0,0 l/m 0 min 0 min 0 W/m 0,0 km/h (0 Bft) 95,65 %
14.01.2021 00:36 3,1 C 2,8 C 1,7 C 95 % 1016,8 hPa 0,0 l/m 0 min 0 min 0 W/m 0,0 km/h (0 Bft) 97,87 %
14.01.2021 00:38 3,1 C 2,8 C 1,7 C 95 % 1016,8 hPa 0,0 l/m 0 min 0 min 0 W/m 0,0 km/h (0 Bft) 97,87 %
14.01.2021 00:40 3,1 C 2,8 C 1,7 C 95 % 1016,8 hPa 0,0 l/m 0 min 0 min 0 W/m 0,0 km/h (0 Bft) 97,87 %
14.01.2021 00:42 3,1 C 2,8 C 1,7 C 95 % 1016,8 hPa 0,0 l/m 0 min 0 min 0 W/m 0,0 km/h (0 Bft) 97,87 %
14.01.2021 00:44 3,1 C 2,8 C 1,7 C 95 % 1016,7 hPa 0,0 l/m 0 min 0 min 0 W/m 0,0 km/h (0 Bft) 97,83 %
14.01.2021 00:46 3,1 C 2,8 C 1,7 C 95 % 1016,7 hPa 0,0 l/m 0 min 0 min 0 W/m 0,0 km/h (0 Bft) 97,87 %
14.01.2021 00:48 3,1 C 2,8 C 1,7 C 95 % 1016,7 hPa 0,0 l/m 0 min 0 min 0 W/m 0,0 km/h (0 Bft) 97,87 %
14.01.2021 00:50 3,1 C 2,8 C 1,7 C 95 % 1016,7 hPa 0,0 l/m 0 min 0 min 0 W/m 1,6 km/h (1 Bft) 100,00 %
14.01.2021 00:52 3,1 C 2,8 C 1,7 C 95 % 1016,7 hPa 0,0 l/m 0 min 0 min 0 W/m 0,0 km/h (0 Bft) 100,00 %
14.01.2021 00:54 3,1 C 2,8 C 1,7 C 95 % 1016,7 hPa 0,0 l/m 0 min 0 min 0 W/m 0,0 km/h (0 Bft) 100,00 %
14.01.2021 00:56 3,1 C 2,8 C 1,7 C 95 % 1016,8 hPa 0,0 l/m 0 min 0 min 0 W/m 0,0 km/h (0 Bft) 95,65 %
14.01.2021 00:58 3,1 C 2,8 C 1,7 C 95 % 1016,7 hPa 0,0 l/m 0 min 0 min 0 W/m 1,6 km/h (1 Bft) 100,00 %
14.01.2021 01:00 3,1 C 2,8 C 1,2 C 95 % 1016,7 hPa 0,0 l/m 0 min 0 min 0 W/m 0,0 km/h (0 Bft) 82,98 %
14.01.2021 01:02 3,1 C 2,8 C 1,2 C 95 % 1016,7 hPa 0,0 l/m 0 min 0 min 0 W/m 0,0 km/h (0 Bft) 72,73 %
14.01.2021 01:04 3,1 C 2,8 C 1,2 C 95 % 1016,7 hPa 0,0 l/m 0 min 0 min 0 W/m 0,0 km/h (0 Bft) 100,00 %
14.01.2021 01:06 3,1 C 2,8 C 1,2 C 95 % 1016,8 hPa 0,0 l/m 0 min 0 min 0 W/m 0,0 km/h (0 Bft) 100,00 %
14.01.2021 01:08 3,0 C 2,8 C 1,2 C 95 % 1016,8 hPa 0,0 l/m 0 min 0 min 0 W/m 0,0 km/h (0 Bft) 100,00 %
14.01.2021 01:10 3,0 C 2,8 C 1,2 C 95 % 1016,8 hPa 0,0 l/m 0 min 0 min 0 W/m 0,0 km/h (0 Bft) 100,00 %
14.01.2021 01:12 3,0 C 2,8 C 1,2 C 95 % 1016,8 hPa 0,0 l/m 0 min 0 min 0 W/m 0,0 km/h (0 Bft) 100,00 %
14.01.2021 01:14 3,0 C 2,8 C 1,7 C 95 % 1016,9 hPa 0,0 l/m 0 min 0 min 0 W/m 0,0 km/h (0 Bft) 100,00 %
14.01.2021 01:16 3,0 C 2,8 C 1,7 C 95 % 1017,0 hPa 0,0 l/m 0 min 0 min 0 W/m 0,0 km/h (0 Bft) 100,00 %
14.01.2021 01:18 3,0 C 2,8 C 1,2 C 95 % 1017,0 hPa 0,0 l/m 0 min 0 min 0 W/m 1,6 km/h (1 Bft) 100,00 %
14.01.2021 01:20 3,0 C 2,8 C 1,7 C 95 % 1017,0 hPa 0,0 l/m 0 min 0 min 0 W/m 0,0 km/h (0 Bft) 100,00 %
14.01.2021 01:22 3,0 C 2,8 C 1,7 C 95 % 1017,0 hPa 0,0 l/m 0 min 0 min 0 W/m 0,0 km/h (0 Bft) 97,87 %
14.01.2021 01:24 3,0 C 2,8 C 1,7 C 95 % 1017,1 hPa 0,0 l/m 0 min 0 min 0 W/m 1,6 km/h (1 Bft) 97,87 %
14.01.2021 01:26 2,9 C 2,8 C 1,7 C 95 % 1017,2 hPa 0,0 l/m 0 min 0 min 0 W/m 0,0 km/h (0 Bft) 97,30 %
14.01.2021 01:28 2,9 C 2,8 C 1,7 C 95 % 1017,2 hPa 0,0 l/m 0 min 0 min 0 W/m 0,0 km/h (0 Bft) 97,87 %
14.01.2021 01:30 2,9 C 2,8 C 1,2 C 95 % 1017,2 hPa 0,0 l/m 0 min 0 min 0 W/m 0,0 km/h (0 Bft) 97,83 %
14.01.2021 01:32 2,9 C 2,8 C 1,2 C 94 % 1017,1 hPa 0,0 l/m 0 min 0 min 0 W/m 3,2 km/h (1 Bft) 97,87 %
14.01.2021 01:34 2,9 C 2,8 C 1,2 C 95 % 1017,1 hPa 0,0 l/m 0 min 0 min 0 W/m 1,6 km/h (1 Bft) 97,87 %
14.01.2021 01:36 2,9 C 2,8 C 1,2 C 94 % 1017,1 hPa 0,0 l/m 0 min 0 min 0 W/m 0,0 km/h (0 Bft) 95,74 %
14.01.2021 01:38 2,9 C 2,8 C 1,2 C 94 % 1017,1 hPa 0,0 l/m 0 min 0 min 0 W/m 0,0 km/h (0 Bft) 97,87 %
14.01.2021 01:40 2,9 C 2,8 C 1,2 C 94 % 1017,0 hPa 0,0 l/m 0 min 0 min 0 W/m 0,0 km/h (0 Bft) 97,87 %
14.01.2021 01:42 2,9 C 2,8 C 1,2 C 94 % 1017,0 hPa 0,0 l/m 0 min 0 min 0 W/m 0,0 km/h (0 Bft) 97,87 %
14.01.2021 01:44 2,9 C 2,8 C 1,2 C 94 % 1017,0 hPa 0,0 l/m 0 min 0 min 0 W/m 0,0 km/h (0 Bft) 97,83 %
14.01.2021 01:46 2,9 C 2,8 C 1,2 C 94 % 1017,0 hPa 0,0 l/m 0 min 0 min 0 W/m 0,0 km/h (0 Bft) 93,62 %
14.01.2021 01:48 2,9 C 2,2 C 1,2 C 94 % 1017,0 hPa 0,0 l/m 0 min 0 min 0 W/m 0,0 km/h (0 Bft) 97,87 %
14.01.2021 01:50 2,8 C 2,2 C 1,2 C 94 % 1017,0 hPa 0,0 l/m 0 min 0 min 0 W/m 0,0 km/h (0 Bft) 97,87 %
14.01.2021 01:52 2,8 C 2,2 C 1,2 C 93 % 1017,0 hPa 0,0 l/m 0 min 0 min 0 W/m 0,0 km/h (0 Bft) 95,74 %
14.01.2021 01:54 2,8 C 2,2 C 1,2 C 93 % 1017,1 hPa 0,0 l/m 0 min 0 min 0 W/m 0,0 km/h (0 Bft) 97,83 %
14.01.2021 01:56 2,8 C 2,2 C 1,2 C 93 % 1017,1 hPa 0,0 l/m 0 min 0 min 0 W/m 0,0 km/h (0 Bft) 97,87 %
14.01.2021 01:58 2,8 C 2,2 C 1,2 C 93 % 1017,1 hPa 0,0 l/m 0 min 0 min 0 W/m 1,6 km/h (1 Bft) 97,87 %
14.01.2021 02:00 2,8 C 2,2 C 1,2 C 93 % 1017,2 hPa 0,0 l/m 0 min 0 min 0 W/m 0,0 km/h (0 Bft) 97,87 %
14.01.2021 02:02 2,8 C 2,2 C 1,2 C 93 % 1017,2 hPa 0,0 l/m 0 min 0 min 0 W/m 0,0 km/h (0 Bft) 97,87 %
14.01.2021 02:04 2,7 C 2,2 C 1,2 C 93 % 1017,2 hPa 0,0 l/m 0 min 0 min 0 W/m 0,0 km/h (0 Bft) 97,87 %
14.01.2021 02:06 2,7 C 2,2 C 1,2 C 93 % 1017,2 hPa 0,0 l/m 0 min 0 min 0 W/m 0,0 km/h (0 Bft) 93,48 %
14.01.2021 02:08 2,7 C 2,2 C 1,2 C 92 % 1017,2 hPa 0,0 l/m 0 min 0 min 0 W/m 0,0 km/h (0 Bft) 97,87 %
14.01.2021 02:10 2,7 C 2,2 C 1,2 C 92 % 1017,3 hPa 0,0 l/m 0 min 0 min 0 W/m 0,0 km/h (0 Bft) 97,87 %
14.01.2021 02:12 2,7 C 2,2 C 1,2 C 92 % 1017,3 hPa 0,0 l/m 0 min 0 min 0 W/m 1,6 km/h (1 Bft) 100,00 %
14.01.2021 02:14 2,7 C 2,2 C 1,2 C 92 % 1017,2 hPa 0,0 l/m 0 min 0 min 0 W/m 0,0 km/h (0 Bft) 100,00 %
14.01.2021 02:16 2,7 C 2,2 C 1,2 C 92 % 1017,2 hPa 0,0 l/m 0 min 0 min 0 W/m 0,0 km/h (0 Bft) 100,00 %
14.01.2021 02:18 2,7 C 2,2 C 1,2 C 91 % 1017,2 hPa 0,0 l/m 0 min 0 min 0 W/m 0,0 km/h (0 Bft) 97,83 %
14.01.2021 02:20 2,7 C 2,2 C 1,2 C 91 % 1017,2 hPa 0,0 l/m 0 min 0 min 0 W/m 0,0 km/h (0 Bft) 100,00 %
14.01.2021 02:22 2,6 C 2,2 C 1,2 C 91 % 1017,2 hPa 0,0 l/m 0 min 0 min 0 W/m 0,0 km/h (0 Bft) 100,00 %
14.01.2021 02:24 2,6 C 2,2 C 1,2 C 91 % 1017,2 hPa 0,0 l/m 0 min 0 min 0 W/m 0,0 km/h (0 Bft) 100,00 %
14.01.2021 02:26 2,6 C 2,2 C 1,2 C 91 % 1017,3 hPa 0,0 l/m 0 min 0 min 0 W/m 1,6 km/h (1 Bft) 100,00 %
14.01.2021 02:28 2,6 C 2,2 C 1,2 C 91 % 1017,3 hPa 0,0 l/m 0 min 0 min 0 W/m 0,0 km/h (0 Bft) 97,87 %
14.01.2021 02:30 2,6 C 2,2 C 1,2 C 91 % 1017,3 hPa 0,0 l/m 0 min 0 min 0 W/m 0,0 km/h (0 Bft) 97,83 %
14.01.2021 02:32 2,6 C 2,2 C 1,2 C 91 % 1017,3 hPa 0,0 l/m 0 min 0 min 0 W/m 0,0 km/h (0 Bft) 100,00 %
14.01.2021 02:34 2,6 C 2,2 C 1,2 C 90 % 1017,3 hPa 0,0 l/m 0 min 0 min 0 W/m 0,0 km/h (0 Bft) 97,87 %
14.01.2021 02:36 2,6 C 2,2 C 1,2 C 90 % 1017,3 hPa 0,0 l/m 0 min 0 min 0 W/m 0,0 km/h (0 Bft) 97,87 %
14.01.2021 02:38 2,5 C 2,2 C 1,2 C 90 % 1017,4 hPa 0,0 l/m 0 min 0 min 0 W/m 0,0 km/h (0 Bft) 100,00 %
14.01.2021 02:40 2,5 C 2,2 C 1,2 C 89 % 1017,4 hPa 0,0 l/m 0 min 0 min 0 W/m 0,0 km/h (0 Bft) 97,87 %
14.01.2021 02:42 2,5 C 2,2 C 1,2 C 89 % 1017,4 hPa 0,0 l/m 0 min 0 min 0 W/m 1,6 km/h (1 Bft) 100,00 %
14.01.2021 02:44 2,5 C 2,2 C 1,2 C 89 % 1017,4 hPa 0,0 l/m 0 min 0 min 0 W/m 1,6 km/h (1 Bft) 100,00 %
14.01.2021 02:46 2,5 C 2,2 C 0,6 C 89 % 1017,5 hPa 0,0 l/m 0 min 0 min 0 W/m 0,0 km/h (0 Bft) 97,87 %
14.01.2021 02:48 2,5 C 2,2 C 0,6 C 89 % 1017,4 hPa 0,0 l/m 0 min 0 min 0 W/m 0,0 km/h (0 Bft) 97,87 %
14.01.2021 02:50 2,5 C 2,2 C 0,6 C 89 % 1017,4 hPa 0,0 l/m 0 min 0 min 0 W/m 0,0 km/h (0 Bft) 95,74 %
14.01.2021 02:52 2,5 C 2,2 C 0,6 C 88 % 1017,4 hPa 0,0 l/m 0 min 0 min 0 W/m 0,0 km/h (0 Bft) 100,00 %
14.01.2021 02:54 2,5 C 2,2 C 0,6 C 88 % 1017,4 hPa 0,0 l/m 0 min 0 min 0 W/m 1,6 km/h (1 Bft) 97,87 %
14.01.2021 02:56 2,5 C 2,2 C 0,6 C 88 % 1017,4 hPa 0,0 l/m 0 min 0 min 0 W/m 0,0 km/h (0 Bft) 95,74 %
14.01.2021 02:58 2,4 C 2,2 C 0,6 C 88 % 1017,5 hPa 0,0 l/m 0 min 0 min 0 W/m 0,0 km/h (0 Bft) 97,87 %
14.01.2021 03:00 2,4 C 2,2 C 0,6 C 88 % 1017,5 hPa 0,0 l/m 0 min 0 min 0 W/m 0,0 km/h (0 Bft) 100,00 %
14.01.2021 03:02 2,4 C 1,7 C 0,6 C 88 % 1017,5 hPa 0,0 l/m 0 min 0 min 0 W/m 0,0 km/h (0 Bft) 97,87 %
14.01.2021 03:04 2,4 C 1,7 C 0,6 C 88 % 1017,5 hPa 0,0 l/m 0 min 0 min 0 W/m 0,0 km/h (0 Bft) 97,83 %
14.01.2021 03:06 2,4 C 1,7 C 0,6 C 87 % 1017,5 hPa 0,0 l/m 0 min 0 min 0 W/m 0,0 km/h (0 Bft) 97,87 %
14.01.2021 03:08 2,4 C 1,7 C 0,6 C 87 % 1017,5 hPa 0,0 l/m 0 min 0 min 0 W/m 0,0 km/h (0 Bft) 97,87 %
14.01.2021 03:10 2,4 C 1,7 C 0,6 C 87 % 1017,5 hPa 0,0 l/m 0 min 0 min 0 W/m 0,0 km/h (0 Bft) 97,87 %
14.01.2021 03:12 2,4 C 1,7 C 0,6 C 87 % 1017,5 hPa 0,0 l/m 0 min 0 min 0 W/m 0,0 km/h (0 Bft) 97,87 %
14.01.2021 03:14 2,4 C 1,7 C 0,6 C 87 % 1017,6 hPa 0,0 l/m 0 min 0 min 0 W/m 0,0 km/h (0 Bft) 97,87 %
14.01.2021 03:16 2,3 C 1,7 C 0,6 C 87 % 1017,7 hPa 0,0 l/m 0 min 0 min 0 W/m 0,0 km/h (0 Bft) 97,83 %
14.01.2021 03:18 2,3 C 1,7 C 0,6 C 87 % 1017,6 hPa 0,0 l/m 0 min 0 min 0 W/m 0,0 km/h (0 Bft) 97,87 %
14.01.2021 03:20 2,3 C 1,7 C 0,6 C 87 % 1017,6 hPa 0,0 l/m 0 min 0 min 0 W/m 0,0 km/h (0 Bft) 97,87 %
14.01.2021 03:22 2,3 C 1,7 C 0,6 C 86 % 1017,7 hPa 0,0 l/m 0 min 0 min 0 W/m 0,0 km/h (0 Bft) 97,87 %
14.01.2021 03:24 2,3 C 1,7 C 0,6 C 86 % 1017,7 hPa 0,0 l/m 0 min 0 min 0 W/m 0,0 km/h (0 Bft) 97,87 %
14.01.2021 03:26 2,3 C 1,7 C 0,6 C 86 % 1017,7 hPa 0,0 l/m 0 min 0 min 0 W/m 0,0 km/h (0 Bft) 95,74 %
14.01.2021 03:28 2,3 C 1,7 C 0,6 C 86 % 1017,7 hPa 0,0 l/m 0 min 0 min 0 W/m 0,0 km/h (0 Bft) 95,65 %
14.01.2021 03:30 2,3 C 1,7 C 0,6 C 86 % 1017,8 hPa 0,0 l/m 0 min 0 min 0 W/m 0,0 km/h (0 Bft) 100,00 %
14.01.2021 03:32 2,2 C 1,7 C 0,6 C 86 % 1017,8 hPa 0,0 l/m 0 min 0 min 0 W/m 0,0 km/h (0 Bft) 100,00 %
14.01.2021 03:34 2,2 C 1,7 C 0,0 C 86 % 1017,8 hPa 0,0 l/m 0 min 0 min 0 W/m 0,0 km/h (0 Bft) 100,00 %
14.01.2021 03:36 2,2 C 1,7 C 0,6 C 86 % 1017,8 hPa 0,0 l/m 0 min 0 min 0 W/m 0,0 km/h (0 Bft) 97,87 %
14.01.2021 03:38 2,1 C 1,7 C 0,0 C 86 % 1017,8 hPa 0,0 l/m 0 min 0 min 0 W/m 0,0 km/h (0 Bft) 98,18 %
14.01.2021 03:40 2,1 C 1,7 C 0,0 C 86 % 1017,8 hPa 0,0 l/m 0 min 0 min 0 W/m 0,0 km/h (0 Bft) 100,00 %
14.01.2021 03:42 2,1 C 1,7 C 0,0 C 86 % 1017,9 hPa 0,0 l/m 0 min 0 min 0 W/m 0,0 km/h (0 Bft) 100,00 %
14.01.2021 03:44 2,1 C 1,7 C 0,0 C 86 % 1017,9 hPa 0,0 l/m 0 min 0 min 0 W/m 0,0 km/h (0 Bft) 100,00 %
14.01.2021 03:46 2,1 C 1,7 C 0,0 C 86 % 1018,0 hPa 0,0 l/m 0 min 0 min 0 W/m 0,0 km/h (0 Bft) 100,00 %
14.01.2021 03:48 2,1 C 1,7 C 0,0 C 86 % 1017,9 hPa 0,0 l/m 0 min 0 min 0 W/m 0,0 km/h (0 Bft) 58,33 %
14.01.2021 03:50 2,1 C 1,7 C 0,0 C 86 % 1018,0 hPa 0,0 l/m 0 min 0 min 0 W/m 0,0 km/h (0 Bft) 91,23 %
14.01.2021 03:52 2,1 C 1,7 C 0,0 C 86 % 1018,0 hPa 0,0 l/m 0 min 0 min 0 W/m 0,0 km/h (0 Bft) 100,00 %
14.01.2021 03:54 2,1 C 1,1 C 0,0 C 86 % 1018,1 hPa 0,0 l/m 0 min 0 min 0 W/m 0,0 km/h (0 Bft) 100,00 %
14.01.2021 03:56 2,1 C 1,1 C 0,0 C 86 % 1018,2 hPa 0,0 l/m 0 min 0 min 0 W/m 0,0 km/h (0 Bft) 100,00 %
14.01.2021 03:58 2,0 C 1,1 C 0,0 C 86 % 1018,2 hPa 0,0 l/m 0 min 0 min 0 W/m 0,0 km/h (0 Bft) 100,00 %
14.01.2021 04:00 2,0 C 1,1 C 0,0 C 86 % 1018,2 hPa 0,0 l/m 0 min 0 min 0 W/m 0,0 km/h (0 Bft) 100,00 %
14.01.2021 04:02 2,0 C 1,1 C 0,0 C 86 % 1018,3 hPa 0,0 l/m 0 min 0 min 0 W/m 0,0 km/h (0 Bft) 96,88 %
14.01.2021 04:04 2,0 C 1,1 C 0,0 C 86 % 1018,2 hPa 0,0 l/m 0 min 0 min 0 W/m 0,0 km/h (0 Bft) 100,00 %
14.01.2021 04:06 2,0 C 1,1 C 0,0 C 86 % 1018,3 hPa 0,0 l/m 0 min 0 min 0 W/m 0,0 km/h (0 Bft) 100,00 %
14.01.2021 04:08 2,0 C 1,1 C 0,0 C 87 % 1018,2 hPa 0,0 l/m 0 min 0 min 0 W/m 0,0 km/h (0 Bft) 100,00 %
14.01.2021 04:10 2,0 C 1,1 C 0,0 C 87 % 1018,2 hPa 0,0 l/m 0 min 0 min 0 W/m 0,0 km/h (0 Bft) 100,00 %
14.01.2021 04:12 2,0 C 1,1 C 0,0 C 87 % 1018,2 hPa 0,0 l/m 0 min 0 min 0 W/m 0,0 km/h (0 Bft) 97,87 %
14.01.2021 04:14 2,0 C 1,1 C 0,0 C 87 % 1018,2 hPa 0,0 l/m 0 min 0 min 0 W/m 0,0 km/h (0 Bft) 97,87 %
14.01.2021 04:16 2,0 C 1,1 C 0,0 C 87 % 1018,2 hPa 0,0 l/m 0 min 0 min 0 W/m 0,0 km/h (0 Bft) 97,87 %
14.01.2021 04:18 2,0 C 1,1 C 0,0 C 87 % 1018,3 hPa 0,0 l/m 0 min 0 min 0 W/m 0,0 km/h (0 Bft) 97,83 %
14.01.2021 04:20 1,9 C 1,1 C 0,0 C 87 % 1018,2 hPa 0,0 l/m 0 min 0 min 0 W/m 0,0 km/h (0 Bft) 97,87 %
14.01.2021 04:22 1,9 C 1,1 C 0,0 C 87 % 1018,3 hPa 0,0 l/m 0 min 0 min 0 W/m 0,0 km/h (0 Bft) 97,87 %
14.01.2021 04:24 1,9 C 1,1 C 0,0 C 87 % 1018,3 hPa 0,0 l/m 0 min 0 min 0 W/m 0,0 km/h (0 Bft) 100,00 %
14.01.2021 04:26 1,9 C 1,1 C 0,0 C 87 % 1018,3 hPa 0,0 l/m 0 min 0 min 0 W/m 0,0 km/h (0 Bft) 95,74 %
14.01.2021 04:28 1,9 C 1,1 C 0,0 C 87 % 1018,3 hPa 0,0 l/m 0 min 0 min 0 W/m 0,0 km/h (0 Bft) 97,87 %
14.01.2021 04:30 1,9 C 1,1 C 0,0 C 87 % 1018,2 hPa 0,0 l/m 0 min 0 min 0 W/m 0,0 km/h (0 Bft) 97,83 %
14.01.2021 04:32 1,9 C 1,1 C 0,0 C 87 % 1018,2 hPa 0,0 l/m 0 min 0 min 0 W/m 0,0 km/h (0 Bft) 97,87 %
14.01.2021 04:34 1,9 C 1,1 C 0,0 C 88 % 1018,2 hPa 0,0 l/m 0 min 0 min 0 W/m 0,0 km/h (0 Bft) 97,87 %
14.01.2021 04:36 1,9 C 1,1 C 0,0 C 88 % 1018,2 hPa 0,0 l/m 0 min 0 min 0 W/m 0,0 km/h (0 Bft) 97,87 %
14.01.2021 04:38 1,9 C 1,1 C 0,0 C 88 % 1018,2 hPa 0,0 l/m 0 min 0 min 0 W/m 0,0 km/h (0 Bft) 97,87 %
14.01.2021 04:40 1,9 C 1,1 C 0,0 C 88 % 1018,3 hPa 0,0 l/m 0 min 0 min 0 W/m 0,0 km/h (0 Bft) 97,87 %
14.01.2021 04:42 1,8 C 1,1 C 0,0 C 88 % 1018,3 hPa 0,0 l/m 0 min 0 min 0 W/m 0,0 km/h (0 Bft) 97,83 %
14.01.2021 04:44 1,8 C 1,1 C 0,0 C 88 % 1018,4 hPa 0,0 l/m 0 min 0 min 0 W/m 0,0 km/h (0 Bft) 95,74 %
14.01.2021 04:46 1,8 C 1,1 C 0,0 C 88 % 1018,5 hPa 0,0 l/m 0 min 0 min 0 W/m 0,0 km/h (0 Bft) 97,87 %
14.01.2021 04:48 1,8 C 1,1 C 0,0 C 88 % 1018,5 hPa 0,0 l/m 0 min 0 min 0 W/m 0,0 km/h (0 Bft) 97,87 %
14.01.2021 04:50 1,8 C 1,1 C 0,0 C 88 % 1018,5 hPa 0,0 l/m 0 min 0 min 0 W/m 0,0 km/h (0 Bft) 97,87 %
14.01.2021 04:52 1,8 C 1,1 C 0,0 C 88 % 1018,5 hPa 0,0 l/m 0 min 0 min 0 W/m 0,0 km/h (0 Bft) 97,87 %
14.01.2021 04:54 1,8 C 1,1 C 0,0 C 88 % 1018,4 hPa 0,0 l/m 0 min 0 min 0 W/m 0,0 km/h (0 Bft) 97,83 %
14.01.2021 04:56 1,7 C 1,1 C 0,0 C 88 % 1018,4 hPa 0,0 l/m 0 min 0 min 0 W/m 0,0 km/h (0 Bft) 97,87 %
14.01.2021 04:58 1,7 C 1,1 C -0,5 C 88 % 1018,5 hPa 0,0 l/m 0 min 0 min 0 W/m 0,0 km/h (0 Bft) 97,87 %
14.01.2021 05:00 1,7 C 1,1 C -0,5 C 88 % 1018,5 hPa 0,0 l/m 0 min 0 min 0 W/m 0,0 km/h (0 Bft) 97,87 %
14.01.2021 05:02 1,7 C 1,1 C -0,5 C 88 % 1018,5 hPa 0,0 l/m 0 min 0 min 0 W/m 0,0 km/h (0 Bft) 95,74 %
14.01.2021 05:04 1,6 C 1,1 C -0,5 C 88 % 1018,5 hPa 0,0 l/m 0 min 0 min 0 W/m 0,0 km/h (0 Bft) 100,00 %
14.01.2021 05:06 1,6 C 1,1 C -0,5 C 88 % 1018,5 hPa 0,0 l/m 0 min 0 min 0 W/m 0,0 km/h (0 Bft) 100,00 %
14.01.2021 05:08 1,6 C 1,1 C -0,5 C 88 % 1018,5 hPa 0,0 l/m 0 min 0 min 0 W/m 0,0 km/h (0 Bft) 95,74 %
14.01.2021 05:10 1,6 C 1,1 C -0,5 C 87 % 1018,5 hPa 0,0 l/m 0 min 0 min 0 W/m 0,0 km/h (0 Bft) 100,00 %
14.01.2021 05:12 1,6 C 1,1 C -0,5 C 87 % 1018,5 hPa 0,0 l/m 0 min 0 min 0 W/m 0,0 km/h (0 Bft) 100,00 %
14.01.2021 05:14 1,6 C 1,1 C -0,5 C 87 % 1018,6 hPa 0,0 l/m 0 min 0 min 0 W/m 0,0 km/h (0 Bft) 100,00 %
14.01.2021 05:16 1,6 C 1,1 C -0,5 C 87 % 1018,6 hPa 0,0 l/m 0 min 0 min 0 W/m 0,0 km/h (0 Bft) 93,62 %
14.01.2021 05:18 1,6 C 1,1 C 0,0 C 87 % 1018,5 hPa 0,0 l/m 0 min 0 min 0 W/m 0,0 km/h (0 Bft) 95,65 %
14.01.2021 05:20 1,5 C 1,1 C 0,0 C 87 % 1018,5 hPa 0,0 l/m 0 min 0 min 0 W/m 0,0 km/h (0 Bft) 97,87 %
14.01.2021 05:22 1,5 C 1,1 C 0,0 C 87 % 1018,5 hPa 0,0 l/m 0 min 0 min 0 W/m 0,0 km/h (0 Bft) 91,49 %
14.01.2021 05:24 1,5 C 1,1 C 0,0 C 87 % 1018,4 hPa 0,0 l/m 0 min 0 min 0 W/m 0,0 km/h (0 Bft) 95,74 %
14.01.2021 05:26 1,5 C 1,1 C 0,0 C 87 % 1018,4 hPa 0,0 l/m 0 min 0 min 0 W/m 0,0 km/h (0 Bft) 95,74 %
14.01.2021 05:28 1,5 C 1,1 C -0,5 C 87 % 1018,3 hPa 0,0 l/m 0 min 0 min 0 W/m 0,0 km/h (0 Bft) 95,00 %
14.01.2021 05:30 1,5 C 1,1 C -0,5 C 87 % 1018,3 hPa 0,0 l/m 0 min 0 min 0 W/m 0,0 km/h (0 Bft) 95,74 %
14.01.2021 05:32 1,5 C 1,1 C -0,5 C 87 % 1018,3 hPa 0,0 l/m 0 min 0 min 0 W/m 0,0 km/h (0 Bft) 95,74 %
14.01.2021 05:34 1,5 C 1,1 C -0,5 C 87 % 1018,3 hPa 0,0 l/m 0 min 0 min 0 W/m 0,0 km/h (0 Bft) 95,74 %
14.01.2021 05:36 1,5 C 1,1 C -0,5 C 87 % 1018,3 hPa 0,0 l/m 0 min 0 min 0 W/m 0,0 km/h (0 Bft) 95,74 %
14.01.2021 05:38 1,5 C 1,1 C -0,5 C 87 % 1018,3 hPa 0,0 l/m 0 min 0 min 0 W/m 0,0 km/h (0 Bft) 93,48 %
14.01.2021 05:40 1,5 C 1,1 C 0,0 C 87 % 1018,4 hPa 0,0 l/m 0 min 0 min 0 W/m 0,0 km/h (0 Bft) 95,74 %
14.01.2021 05:42 1,5 C 1,1 C 0,0 C 87 % 1018,4 hPa 0,0 l/m 0 min 0 min 0 W/m 0,0 km/h (0 Bft) 95,74 %
14.01.2021 05:44 1,5 C 1,1 C 0,0 C 87 % 1018,4 hPa 0,0 l/m 0 min 0 min 0 W/m 0,0 km/h (0 Bft) 95,74 %
14.01.2021 05:46 1,5 C 1,1 C 0,0 C 87 % 1018,4 hPa 0,0 l/m 0 min 0 min 0 W/m 0,0 km/h (0 Bft) 95,74 %
14.01.2021 05:48 1,5 C 1,1 C 0,0 C 87 % 1018,4 hPa 0,0 l/m 0 min 0 min 0 W/m 0,0 km/h (0 Bft) 97,87 %
14.01.2021 05:50 1,5 C 1,1 C 0,0 C 87 % 1018,5 hPa 0,0 l/m 0 min 0 min 0 W/m 0,0 km/h (0 Bft) 95,83 %
14.01.2021 05:55 1,5 C 1,1 C 0,0 C 87 % 1018,5 hPa 0,0 l/m 0 min 0 min 0 W/m 1,6 km/h (1 Bft) 97,96 %
14.01.2021 05:56 1,5 C 1,1 C 0,0 C 87 % 1018,5 hPa 0,0 l/m 0 min 0 min 0 W/m 0,0 km/h (0 Bft) 100,00 %
14.01.2021 05:58 1,5 C 1,1 C 0,0 C 87 % 1018,6 hPa 0,0 l/m 0 min 0 min 0 W/m 0,0 km/h (0 Bft) 95,74 %
14.01.2021 06:00 1,5 C 1,1 C 0,0 C 87 % 1018,6 hPa 0,0 l/m 0 min 0 min 0 W/m 0,0 km/h (0 Bft) 95,74 %
14.01.2021 06:02 1,5 C 1,1 C 0,0 C 87 % 1018,6 hPa 0,0 l/m 0 min 0 min 0 W/m 0,0 km/h (0 Bft) 95,65 %
14.01.2021 06:04 1,5 C 1,1 C 0,0 C 87 % 1018,6 hPa 0,0 l/m 0 min 0 min 0 W/m 0,0 km/h (0 Bft) 95,74 %
14.01.2021 06:06 1,5 C 1,1 C 0,0 C 87 % 1018,6 hPa 0,0 l/m 0 min 0 min 0 W/m 0,0 km/h (0 Bft) 97,87 %
14.01.2021 06:08 1,5 C 1,1 C 0,0 C 87 % 1018,6 hPa 0,0 l/m 0 min 0 min 0 W/m 0,0 km/h (0 Bft) 100,00 %
14.01.2021 06:10 1,5 C 1,1 C 0,0 C 87 % 1018,6 hPa 0,0 l/m 0 min 0 min 0 W/m 0,0 km/h (0 Bft) 97,87 %
14.01.2021 06:12 1,5 C 1,1 C -0,5 C 87 % 1018,5 hPa 0,0 l/m 0 min 0 min 0 W/m 0,0 km/h (0 Bft) 97,87 %
14.01.2021 06:14 1,5 C 1,1 C -0,5 C 87 % 1018,6 hPa 0,0 l/m 0 min 0 min 0 W/m 0,0 km/h (0 Bft) 97,83 %
14.01.2021 06:16 1,5 C 1,1 C -0,5 C 87 % 1018,6 hPa 0,0 l/m 0 min 0 min 0 W/m 0,0 km/h (0 Bft) 95,74 %
14.01.2021 06:18 1,5 C 1,1 C -0,5 C 87 % 1018,6 hPa 0,0 l/m 0 min 0 min 0 W/m 0,0 km/h (0 Bft) 95,74 %
14.01.2021 06:20 1,5 C 0,6 C -0,5 C 87 % 1018,6 hPa 0,0 l/m 0 min 0 min 0 W/m 0,0 km/h (0 Bft) 97,87 %
14.01.2021 06:22 1,5 C 0,6 C -0,5 C 87 % 1018,6 hPa 0,0 l/m 0 min 0 min 0 W/m 0,0 km/h (0 Bft) 97,87 %
14.01.2021 06:24 1,5 C 0,6 C -0,5 C 87 % 1018,6 hPa 0,0 l/m 0 min 0 min 0 W/m 0,0 km/h (0 Bft) 97,87 %
14.01.2021 06:26 1,5 C 0,6 C -0,5 C 87 % 1018,6 hPa 0,0 l/m 0 min 0 min 0 W/m 0,0 km/h (0 Bft) 93,48 %
14.01.2021 06:28 1,4 C 0,6 C -0,5 C 87 % 1018,6 hPa 0,0 l/m 0 min 0 min 0 W/m 0,0 km/h (0 Bft) 100,00 %
14.01.2021 06:30 1,4 C 0,6 C -0,5 C 87 % 1018,6 hPa 0,0 l/m 0 min 0 min 0 W/m 0,0 km/h (0 Bft) 95,74 %
14.01.2021 06:32 1,4 C 0,6 C -0,5 C 87 % 1018,6 hPa 0,0 l/m 0 min 0 min 0 W/m 0,0 km/h (0 Bft) 97,87 %
14.01.2021 06:34 1,4 C 0,6 C -0,5 C 87 % 1018,6 hPa 0,0 l/m 0 min 0 min 0 W/m 0,0 km/h (0 Bft) 97,87 %
14.01.2021 06:36 1,4 C 0,6 C -0,5 C 87 % 1018,6 hPa 0,0 l/m 0 min 0 min 0 W/m 0,0 km/h (0 Bft) 98,15 %
14.01.2021 06:38 1,4 C 0,6 C -0,5 C 87 % 1018,6 hPa 0,0 l/m 0 min 0 min 0 W/m 0,0 km/h (0 Bft) 95,92 %
14.01.2021 06:40 1,4 C 0,6 C -0,5 C 87 % 1018,7 hPa 0,0 l/m 0 min 0 min 0 W/m 0,0 km/h (0 Bft) 97,87 %
14.01.2021 06:42 1,4 C 0,6 C -0,5 C 87 % 1018,7 hPa 0,0 l/m 0 min 0 min 0 W/m 0,0 km/h (0 Bft) 95,74 %
14.01.2021 06:44 1,4 C 0,6 C -0,5 C 87 % 1018,7 hPa 0,0 l/m 0 min 0 min 0 W/m 0,0 km/h (0 Bft) 97,87 %
14.01.2021 06:46 1,4 C 0,6 C -0,5 C 87 % 1018,7 hPa 0,0 l/m 0 min 0 min 0 W/m 0,0 km/h (0 Bft) 97,87 %
14.01.2021 06:48 1,4 C 0,6 C -0,5 C 87 % 1018,7 hPa 0,0 l/m 0 min 0 min 0 W/m 0,0 km/h (0 Bft) 97,87 %
14.01.2021 06:50 1,4 C 0,6 C -0,5 C 87 % 1018,8 hPa 0,0 l/m 0 min 0 min 0 W/m 0,0 km/h (0 Bft) 97,87 %
14.01.2021 06:52 1,3 C 0,6 C -0,5 C 87 % 1018,8 hPa 0,0 l/m 0 min 0 min 0 W/m 0,0 km/h (0 Bft) 95,65 %
14.01.2021 06:54 1,3 C 0,6 C -0,5 C 87 % 1018,8 hPa 0,0 l/m 0 min 0 min 0 W/m 0,0 km/h (0 Bft) 97,87 %
14.01.2021 06:56 1,3 C 0,6 C -0,5 C 87 % 1018,8 hPa 0,0 l/m 0 min 0 min 0 W/m 0,0 km/h (0 Bft) 95,74 %
14.01.2021 06:58 1,3 C 0,6 C -0,5 C 87 % 1018,8 hPa 0,0 l/m 0 min 0 min 0 W/m 0,0 km/h (0 Bft) 97,87 %
14.01.2021 07:00 1,3 C 0,6 C -0,5 C 87 % 1018,7 hPa 0,0 l/m 0 min 0 min 0 W/m 0,0 km/h (0 Bft) 97,87 %
14.01.2021 07:02 1,3 C 0,6 C -0,5 C 87 % 1018,8 hPa 0,0 l/m 0 min 0 min 0 W/m 0,0 km/h (0 Bft) 97,83 %
14.01.2021 07:04 1,3 C 0,6 C -0,5 C 87 % 1018,9 hPa 0,0 l/m 0 min 0 min 0 W/m 0,0 km/h (0 Bft) 97,87 %
14.01.2021 07:06 1,3 C 0,6 C -0,5 C 87 % 1018,9 hPa 0,0 l/m 0 min 0 min 0 W/m 0,0 km/h (0 Bft) 97,87 %
14.01.2021 07:08 1,3 C 0,6 C -0,5 C 87 % 1018,9 hPa 0,0 l/m 0 min 0 min 0 W/m 0,0 km/h (0 Bft) 56,52 %
14.01.2021 07:10 1,2 C 0,6 C -0,5 C 87 % 1018,9 hPa 0,0 l/m 0 min 0 min 0 W/m 0,0 km/h (0 Bft) 95,74 %
14.01.2021 07:12 1,2 C 0,6 C -1,1 C 87 % 1018,9 hPa 0,0 l/m 0 min 0 min 0 W/m 0,0 km/h (0 Bft) 93,62 %
14.01.2021 07:14 1,2 C 0,6 C -0,5 C 87 % 1019,0 hPa 0,0 l/m 0 min 0 min 0 W/m 0,0 km/h (0 Bft) 93,48 %
14.01.2021 07:16 1,2 C 0,6 C -0,5 C 87 % 1019,0 hPa 0,0 l/m 0 min 0 min 0 W/m 0,0 km/h (0 Bft) 93,62 %
14.01.2021 07:18 1,2 C 0,6 C -0,5 C 87 % 1019,0 hPa 0,0 l/m 0 min 0 min 0 W/m 0,0 km/h (0 Bft) 93,62 %
14.01.2021 07:20 1,1 C 0,6 C -0,5 C 88 % 1019,0 hPa 0,0 l/m 0 min 0 min 0 W/m 0,0 km/h (0 Bft) 95,74 %
14.01.2021 07:22 1,1 C 0,6 C -0,5 C 87 % 1019,0 hPa 0,0 l/m 0 min 0 min 0 W/m 0,0 km/h (0 Bft) 95,74 %
14.01.2021 07:24 1,1 C 0,6 C -0,5 C 87 % 1019,1 hPa 0,0 l/m 0 min 0 min 0 W/m 0,0 km/h (0 Bft) 95,74 %
14.01.2021 07:25 1,1 C 0,6 C -0,5 C 87 % 1019,1 hPa 0,0 l/m 0 min 0 min 0 W/m 0,0 km/h (0 Bft) 97,37 %
14.01.2021 07:30 1,1 C 0,6 C -1,1 C 88 % 1019,2 hPa 0,0 l/m 0 min 0 min 0 W/m 0,0 km/h (0 Bft) 99,12 %
14.01.2021 07:35 1,1 C 0,6 C -1,1 C 88 % 1019,2 hPa 0,0 l/m 0 min 0 min 0 W/m 0,0 km/h (0 Bft) 93,86 %
14.01.2021 07:40 1,0 C 0,6 C -0,5 C 88 % 1019,2 hPa 0,0 l/m 0 min 0 min 0 W/m 0,0 km/h (0 Bft) 97,44 %
14.01.2021 07:42 1,0 C 0,6 C -0,5 C 88 % 1019,3 hPa 0,0 l/m 0 min 0 min 0 W/m 0,0 km/h (0 Bft) 97,87 %
14.01.2021 07:44 1,0 C 0,6 C -0,5 C 88 % 1019,3 hPa 0,0 l/m 0 min 0 min 0 W/m 0,0 km/h (0 Bft) 95,74 %
14.01.2021 07:46 1,0 C 0,6 C -0,5 C 88 % 1019,3 hPa 0,0 l/m 0 min 0 min 0 W/m 0,0 km/h (0 Bft) 97,83 %
14.01.2021 07:48 1,0 C 0,6 C -0,5 C 88 % 1019,3 hPa 0,0 l/m 0 min 0 min 0 W/m 0,0 km/h (0 Bft) 93,62 %
14.01.2021 07:50 1,0 C 0,6 C -0,5 C 88 % 1019,4 hPa 0,0 l/m 0 min 0 min 0 W/m 0,0 km/h (0 Bft) 95,74 %
14.01.2021 07:52 1,0 C 0,6 C -0,5 C 88 % 1019,4 hPa 0,0 l/m 0 min 0 min 0 W/m 0,0 km/h (0 Bft) 97,87 %
14.01.2021 07:54 1,0 C 0,6 C -0,5 C 88 % 1019,4 hPa 0,0 l/m 0 min 0 min 0 W/m 0,0 km/h (0 Bft) 93,62 %
14.01.2021 07:56 1,0 C 0,6 C -0,5 C 88 % 1019,4 hPa 0,0 l/m 0 min 0 min 0 W/m 0,0 km/h (0 Bft) 93,62 %
14.01.2021 07:58 1,0 C 0,6 C -0,5 C 88 % 1019,3 hPa 0,0 l/m 0 min 0 min 0 W/m 0,0 km/h (0 Bft) 97,83 %
14.01.2021 08:00 1,0 C 0,6 C -0,5 C 88 % 1019,3 hPa 0,0 l/m 0 min 0 min 0 W/m 0,0 km/h (0 Bft) 97,87 %
14.01.2021 08:02 1,0 C 0,6 C -0,5 C 88 % 1019,4 hPa 0,0 l/m 0 min 0 min 0 W/m 0,0 km/h (0 Bft) 95,74 %
14.01.2021 08:04 1,0 C 0,6 C -1,1 C 88 % 1019,3 hPa 0,0 l/m 0 min 0 min 0 W/m 0,0 km/h (0 Bft) 97,87 %
14.01.2021 08:06 1,0 C 0,6 C -1,1 C 88 % 1019,3 hPa 0,0 l/m 0 min 0 min 0 W/m 0,0 km/h (0 Bft) 95,74 %
14.01.2021 08:08 1,0 C 0,6 C -1,1 C 88 % 1019,3 hPa 0,0 l/m 0 min 0 min 0 W/m 0,0 km/h (0 Bft) 95,74 %
14.01.2021 08:10 1,0 C 0,6 C -1,1 C 88 % 1019,4 hPa 0,0 l/m 0 min 0 min 0 W/m 0,0 km/h (0 Bft) 97,83 %
14.01.2021 08:12 1,0 C 0,6 C -1,1 C 88 % 1019,4 hPa 0,0 l/m 0 min 0 min 0 W/m 0,0 km/h (0 Bft) 93,62 %
14.01.2021 08:14 1,0 C 0,6 C -1,1 C 88 % 1019,4 hPa 0,0 l/m 0 min 0 min 0 W/m 0,0 km/h (0 Bft) 97,87 %
14.01.2021 08:16 1,0 C 0,0 C -1,1 C 88 % 1019,4 hPa 0,0 l/m 0 min 0 min 0 W/m 0,0 km/h (0 Bft) 95,74 %
14.01.2021 08:18 1,0 C 0,0 C -1,1 C 88 % 1019,5 hPa 0,0 l/m 0 min 0 min 0 W/m 0,0 km/h (0 Bft) 97,87 %
14.01.2021 08:20 0,9 C 0,0 C -1,1 C 88 % 1019,4 hPa 0,0 l/m 0 min 0 min 0 W/m 0,0 km/h (0 Bft) 97,87 %
14.01.2021 08:22 0,9 C 0,0 C -1,1 C 88 % 1019,4 hPa 0,0 l/m 0 min 0 min 0 W/m 0,0 km/h (0 Bft) 97,83 %
14.01.2021 08:24 0,9 C 0,0 C -1,1 C 88 % 1019,5 hPa 0,0 l/m 0 min 0 min 0 W/m 0,0 km/h (0 Bft) 95,74 %
14.01.2021 08:26 0,9 C 0,0 C -1,1 C 88 % 1019,5 hPa 0,0 l/m 0 min 0 min 0 W/m 0,0 km/h (0 Bft) 95,74 %
14.01.2021 08:28 0,9 C 0,0 C -1,1 C 88 % 1019,4 hPa 0,0 l/m 0 min 0 min 0 W/m 0,0 km/h (0 Bft) 97,87 %
14.01.2021 08:30 0,9 C 0,0 C -1,1 C 88 % 1019,5 hPa 0,0 l/m 0 min 0 min 0 W/m 0,0 km/h (0 Bft) 97,87 %
14.01.2021 08:32 0,9 C 0,0 C -1,1 C 88 % 1019,5 hPa 0,0 l/m 0 min 0 min 0 W/m 0,0 km/h (0 Bft) 97,83 %
14.01.2021 08:34 0,9 C 0,0 C -1,1 C 88 % 1019,5 hPa 0,0 l/m 0 min 0 min 0 W/m 0,0 km/h (0 Bft) 100,00 %
14.01.2021 08:36 0,9 C 0,0 C -1,1 C 88 % 1019,6 hPa 0,0 l/m 0 min 0 min 0 W/m 0,0 km/h (0 Bft) 97,87 %
14.01.2021 08:38 0,9 C 0,0 C -1,1 C 88 % 1019,7 hPa 0,0 l/m 0 min 0 min 0 W/m 0,0 km/h (0 Bft) 100,00 %
14.01.2021 08:40 0,9 C 0,0 C -1,1 C 88 % 1019,7 hPa 0,0 l/m 0 min 0 min 0 W/m 0,0 km/h (0 Bft) 97,87 %
14.01.2021 08:42 0,9 C 0,0 C -1,1 C 88 % 1019,7 hPa 0,0 l/m 0 min 0 min 0 W/m 0,0 km/h (0 Bft) 57,45 %
14.01.2021 08:44 0,9 C 0,0 C -1,1 C 88 % 1019,7 hPa 0,0 l/m 0 min 0 min 2 W/m 0,0 km/h (0 Bft) 97,83 %
14.01.2021 08:46 0,9 C 0,0 C -1,1 C 88 % 1019,7 hPa 0,0 l/m 0 min 0 min 5 W/m 0,0 km/h (0 Bft) 100,00 %
14.01.2021 08:48 0,9 C 0,0 C -1,1 C 88 % 1019,7 hPa 0,0 l/m 0 min 0 min 5 W/m 0,0 km/h (0 Bft) 100,00 %
14.01.2021 08:50 0,9 C 0,0 C -1,1 C 88 % 1019,8 hPa 0,0 l/m 0 min 0 min 5 W/m 0,0 km/h (0 Bft) 100,00 %
14.01.2021 08:52 0,9 C 0,0 C -1,1 C 88 % 1019,8 hPa 0,0 l/m 0 min 0 min 7 W/m 0,0 km/h (0 Bft) 100,00 %
14.01.2021 08:54 0,9 C 0,0 C -1,1 C 88 % 1019,8 hPa 0,0 l/m 0 min 0 min 7 W/m 0,0 km/h (0 Bft) 97,83 %
14.01.2021 08:56 0,9 C 0,0 C -1,1 C 88 % 1019,8 hPa 0,0 l/m 0 min 0 min 8 W/m 0,0 km/h (0 Bft) 100,00 %
14.01.2021 08:58 0,9 C 0,0 C -1,1 C 89 % 1019,8 hPa 0,0 l/m 0 min 0 min 9 W/m 0,0 km/h (0 Bft) 100,00 %
14.01.2021 09:00 0,9 C 0,6 C -1,1 C 89 % 1019,9 hPa 0,0 l/m 0 min 0 min 10 W/m 0,0 km/h (0 Bft) 97,87 %
14.01.2021 09:02 0,8 C 0,6 C -1,1 C 89 % 1019,9 hPa 0,0 l/m 0 min 0 min 11 W/m 0,0 km/h (0 Bft) 100,00 %
14.01.2021 09:04 0,8 C 0,6 C -1,1 C 89 % 1019,9 hPa 0,0 l/m 0 min 0 min 11 W/m 0,0 km/h (0 Bft) 100,00 %
14.01.2021 09:06 0,8 C 0,6 C -1,1 C 89 % 1019,9 hPa 0,0 l/m 0 min 0 min 12 W/m 0,0 km/h (0 Bft) 97,83 %
14.01.2021 09:08 0,8 C 0,6 C -1,1 C 89 % 1019,9 hPa 0,0 l/m 0 min 0 min 13 W/m 0,0 km/h (0 Bft) 100,00 %
14.01.2021 09:10 0,8 C 0,6 C -0,5 C 89 % 1020,0 hPa 0,0 l/m 0 min 0 min 15 W/m 0,0 km/h (0 Bft) 100,00 %
14.01.2021 09:12 0,8 C 0,6 C -0,5 C 89 % 1020,0 hPa 0,0 l/m 0 min 0 min 16 W/m 0,0 km/h (0 Bft) 100,00 %
14.01.2021 09:14 0,8 C 0,6 C -0,5 C 89 % 1019,9 hPa 0,0 l/m 0 min 0 min 16 W/m 0,0 km/h (0 Bft) 97,87 %
14.01.2021 09:16 0,8 C 0,6 C -0,5 C 89 % 1020,0 hPa 0,0 l/m 0 min 0 min 18 W/m 0,0 km/h (0 Bft) 100,00 %
14.01.2021 09:18 0,8 C 0,6 C -0,5 C 89 % 1019,9 hPa 0,0 l/m 0 min 0 min 20 W/m 0,0 km/h (0 Bft) 100,00 %
14.01.2021 09:20 0,8 C 0,6 C -0,5 C 89 % 1019,9 hPa 0,0 l/m 0 min 0 min 22 W/m 0,0 km/h (0 Bft) 95,74 %
14.01.2021 09:22 0,8 C 0,6 C -0,5 C 89 % 1020,0 hPa 0,0 l/m 0 min 0 min 25 W/m 0,0 km/h (0 Bft) 97,87 %
14.01.2021 09:24 0,8 C 0,6 C -0,5 C 89 % 1020,0 hPa 0,0 l/m 0 min 0 min 22 W/m 0,0 km/h (0 Bft) 100,00 %
14.01.2021 09:26 0,8 C 0,6 C -0,5 C 89 % 1020,0 hPa 0,0 l/m 0 min 0 min 25 W/m 0,0 km/h (0 Bft) 95,74 %
14.01.2021 09:28 0,8 C 0,6 C -0,5 C 89 % 1020,0 hPa 0,0 l/m 0 min 0 min 28 W/m 0,0 km/h (0 Bft) 100,00 %
14.01.2021 09:30 0,8 C 0,6 C -0,5 C 89 % 1020,0 hPa 0,0 l/m 0 min 0 min 32 W/m 0,0 km/h (0 Bft) 100,00 %
14.01.2021 09:32 0,9 C 0,6 C -0,5 C 89 % 1020,0 hPa 0,0 l/m 0 min 0 min 33 W/m 0,0 km/h (0 Bft) 95,74 %
14.01.2021 09:34 0,9 C 0,6 C -0,5 C 89 % 1020,0 hPa 0,0 l/m 0 min 0 min 30 W/m 0,0 km/h (0 Bft) 100,00 %
14.01.2021 09:36 0,9 C 0,6 C -0,5 C 89 % 1020,0 hPa 0,0 l/m 0 min 0 min 32 W/m 0,0 km/h (0 Bft) 100,00 %
14.01.2021 09:38 0,9 C 1,1 C -0,5 C 89 % 1020,0 hPa 0,0 l/m 0 min 0 min 33 W/m 0,0 km/h (0 Bft) 100,00 %
14.01.2021 09:40 0,9 C 1,1 C 0,0 C 89 % 1020,0 hPa 0,0 l/m 0 min 0 min 33 W/m 0,0 km/h (0 Bft) 95,74 %
14.01.2021 09:42 0,9 C 1,1 C 0,0 C 89 % 1020,1 hPa 0,0 l/m 0 min 0 min 33 W/m 0,0 km/h (0 Bft) 100,00 %
14.01.2021 09:44 0,9 C 1,1 C 0,0 C 90 % 1020,1 hPa 0,0 l/m 0 min 0 min 34 W/m 0,0 km/h (0 Bft) 100,00 %
14.01.2021 09:46 0,9 C 1,1 C 0,0 C 90 % 1020,1 hPa 0,0 l/m 0 min 0 min 36 W/m 0,0 km/h (0 Bft) 100,00 %
14.01.2021 09:48 0,9 C 1,1 C 0,0 C 90 % 1020,1 hPa 0,0 l/m 0 min 0 min 39 W/m 0,0 km/h (0 Bft) 100,00 %
14.01.2021 09:50 0,9 C 1,1 C 0,0 C 90 % 1020,2 hPa 0,0 l/m 0 min 0 min 39 W/m 0,0 km/h (0 Bft) 97,87 %
14.01.2021 09:52 0,9 C 1,1 C 0,0 C 90 % 1020,2 hPa 0,0 l/m 0 min 0 min 39 W/m 0,0 km/h (0 Bft) 100,00 %
14.01.2021 09:54 0,9 C 1,1 C 0,0 C 90 % 1020,2 hPa 0,0 l/m 0 min 0 min 39 W/m 0,0 km/h (0 Bft) 100,00 %
14.01.2021 09:56 1,0 C 1,1 C 0,0 C 90 % 1020,3 hPa 0,0 l/m 0 min 0 min 40 W/m 0,0 km/h (0 Bft) 100,00 %
14.01.2021 09:58 1,0 C 1,1 C 0,0 C 90 % 1020,3 hPa 0,0 l/m 0 min 0 min 42 W/m 0,0 km/h (0 Bft) 100,00 %
14.01.2021 10:00 1,0 C 1,1 C 0,0 C 90 % 1020,3 hPa 0,0 l/m 0 min 0 min 46 W/m 0,0 km/h (0 Bft) 100,00 %
14.01.2021 10:02 1,0 C 1,1 C 0,0 C 90 % 1020,3 hPa 0,0 l/m 0 min 0 min 45 W/m 0,0 km/h (0 Bft) 97,87 %
14.01.2021 10:04 1,0 C 1,1 C 0,0 C 90 % 1020,4 hPa 0,0 l/m 0 min 0 min 46 W/m 0,0 km/h (0 Bft) 95,74 %
14.01.2021 10:09 1,1 C 1,7 C 0,0 C 90 % 1020,5 hPa 0,0 l/m 0 min 0 min 48 W/m 0,0 km/h (0 Bft) 94,83 %
14.01.2021 10:10 1,1 C 1,7 C 0,0 C 90 % 1020,5 hPa 0,0 l/m 0 min 0 min 49 W/m 0,0 km/h (0 Bft) 91,30 %
14.01.2021 10:12 1,1 C 1,7 C 0,0 C 90 % 1020,5 hPa 0,0 l/m 0 min 0 min 49 W/m 0,0 km/h (0 Bft) 97,87 %
14.01.2021 10:14 1,1 C 1,7 C 0,6 C 90 % 1020,5 hPa 0,0 l/m 0 min 0 min 49 W/m 0,0 km/h (0 Bft) 95,74 %
14.01.2021 10:16 1,1 C 1,7 C 0,6 C 90 % 1020,5 hPa 0,0 l/m 0 min 0 min 52 W/m 0,0 km/h (0 Bft) 97,83 %
14.01.2021 10:18 1,2 C 1,7 C 0,6 C 90 % 1020,5 hPa 0,0 l/m 0 min 0 min 52 W/m 0,0 km/h (0 Bft) 95,74 %
14.01.2021 10:20 1,2 C 1,7 C 0,6 C 90 % 1020,6 hPa 0,0 l/m 0 min 0 min 51 W/m 0,0 km/h (0 Bft) 97,87 %
14.01.2021 10:22 1,2 C 1,7 C 0,6 C 90 % 1020,6 hPa 0,0 l/m 0 min 0 min 51 W/m 1,6 km/h (1 Bft) 95,74 %
14.01.2021 10:24 1,3 C 1,7 C 0,6 C 90 % 1020,6 hPa 0,0 l/m 0 min 0 min 52 W/m 0,0 km/h (0 Bft) 95,74 %
14.01.2021 10:26 1,3 C 1,7 C 0,6 C 90 % 1020,6 hPa 0,0 l/m 0 min 0 min 49 W/m 0,0 km/h (0 Bft) 97,87 %
14.01.2021 10:28 1,3 C 1,7 C 0,6 C 90 % 1020,7 hPa 0,0 l/m 0 min 0 min 50 W/m 0,0 km/h (0 Bft) 93,48 %
14.01.2021 10:30 1,3 C 1,7 C 0,6 C 90 % 1020,7 hPa 0,0 l/m 0 min 0 min 51 W/m 0,0 km/h (0 Bft) 95,74 %
14.01.2021 10:32 1,3 C 1,7 C 0,6 C 90 % 1020,7 hPa 0,0 l/m 0 min 0 min 53 W/m 0,0 km/h (0 Bft) 95,74 %
14.01.2021 10:34 1,3 C 1,7 C 0,6 C 90 % 1020,7 hPa 0,0 l/m 0 min 0 min 55 W/m 0,0 km/h (0 Bft) 93,62 %
14.01.2021 10:36 1,4 C 1,7 C 0,6 C 90 % 1020,7 hPa 0,0 l/m 0 min 0 min 58 W/m 0,0 km/h (0 Bft) 95,74 %
14.01.2021 10:38 1,4 C 1,7 C 0,6 C 90 % 1020,8 hPa 0,0 l/m 0 min 0 min 58 W/m 0,0 km/h (0 Bft) 95,74 %
14.01.2021 10:40 1,4 C 1,7 C 0,6 C 90 % 1020,8 hPa 0,0 l/m 0 min 0 min 61 W/m 0,0 km/h (0 Bft) 95,65 %
14.01.2021 10:42 1,4 C 1,7 C 0,6 C 90 % 1020,8 hPa 0,0 l/m 0 min 0 min 63 W/m 0,0 km/h (0 Bft) 95,74 %
14.01.2021 10:44 1,4 C 1,7 C 0,6 C 90 % 1020,8 hPa 0,0 l/m 0 min 0 min 65 W/m 0,0 km/h (0 Bft) 93,62 %
14.01.2021 10:46 1,4 C 1,7 C 0,6 C 90 % 1020,8 hPa 0,0 l/m 0 min 0 min 65 W/m 0,0 km/h (0 Bft) 95,74 %
14.01.2021 10:48 1,5 C 1,7 C 0,6 C 89 % 1020,8 hPa 0,0 l/m 0 min 0 min 67 W/m 0,0 km/h (0 Bft) 95,74 %
14.01.2021 10:50 1,5 C 1,7 C 0,6 C 90 % 1020,7 hPa 0,0 l/m 0 min 0 min 68 W/m 0,0 km/h (0 Bft) 95,74 %
14.01.2021 10:52 1,5 C 1,7 C 0,6 C 90 % 1020,7 hPa 0,0 l/m 0 min 0 min 69 W/m 0,0 km/h (0 Bft) 97,83 %
14.01.2021 10:54 1,5 C 1,7 C 0,6 C 89 % 1020,8 hPa 0,0 l/m 0 min 0 min 71 W/m 0,0 km/h (0 Bft) 97,87 %
14.01.2021 10:56 1,5 C 1,7 C 0,6 C 89 % 1020,8 hPa 0,0 l/m 0 min 0 min 72 W/m 0,0 km/h (0 Bft) 97,87 %
14.01.2021 10:58 1,6 C 1,7 C 0,6 C 89 % 1020,8 hPa 0,0 l/m 0 min 0 min 71 W/m 0,0 km/h (0 Bft) 95,74 %
14.01.2021 11:00 1,6 C 1,7 C 0,6 C 89 % 1020,8 hPa 0,0 l/m 0 min 0 min 70 W/m 0,0 km/h (0 Bft) 97,87 %
14.01.2021 11:02 1,6 C 1,7 C 0,6 C 89 % 1020,8 hPa 0,0 l/m 0 min 0 min 72 W/m 0,0 km/h (0 Bft) 97,87 %
14.01.2021 11:04 1,6 C 1,7 C 0,6 C 89 % 1020,8 hPa 0,0 l/m 0 min 0 min 72 W/m 0,0 km/h (0 Bft) 97,83 %
14.01.2021 11:06 1,6 C 1,7 C 0,6 C 89 % 1020,8 hPa 0,0 l/m 0 min 0 min 72 W/m 0,0 km/h (0 Bft) 97,87 %
14.01.2021 11:08 1,6 C 1,7 C 0,6 C 89 % 1020,8 hPa 0,0 l/m 0 min 0 min 72 W/m 0,0 km/h (0 Bft) 100,00 %
14.01.2021 11:10 1,6 C 1,7 C 0,6 C 89 % 1020,7 hPa 0,0 l/m 0 min 0 min 75 W/m 0,0 km/h (0 Bft) 100,00 %
14.01.2021 11:12 1,6 C 1,7 C 0,6 C 88 % 1020,8 hPa 0,0 l/m 0 min 0 min 77 W/m 1,6 km/h (1 Bft) 100,00 %
14.01.2021 11:14 1,6 C 1,7 C 0,6 C 88 % 1020,8 hPa 0,0 l/m 0 min 0 min 80 W/m 0,0 km/h (0 Bft) 100,00 %
14.01.2021 11:16 1,6 C 2,2 C 0,6 C 88 % 1020,8 hPa 0,0 l/m 0 min 0 min 80 W/m 0,0 km/h (0 Bft) 100,00 %
14.01.2021 11:18 1,7 C 2,2 C 1,2 C 88 % 1020,8 hPa 0,0 l/m 0 min 0 min 79 W/m 0,0 km/h (0 Bft) 100,00 %
14.01.2021 11:20 1,7 C 2,2 C 1,2 C 88 % 1020,8 hPa 0,0 l/m 0 min 0 min 79 W/m 0,0 km/h (0 Bft) 100,00 %
14.01.2021 11:22 1,7 C 2,2 C 1,2 C 88 % 1020,8 hPa 0,0 l/m 0 min 0 min 81 W/m 0,0 km/h (0 Bft) 100,00 %
14.01.2021 11:24 1,8 C 2,2 C 1,2 C 88 % 1020,8 hPa 0,0 l/m 0 min 0 min 84 W/m 0,0 km/h (0 Bft) 100,00 %
14.01.2021 11:26 1,8 C 2,2 C 1,2 C 88 % 1020,7 hPa 0,0 l/m 0 min 0 min 89 W/m 0,0 km/h (0 Bft) 100,00 %
14.01.2021 11:28 1,8 C 2,2 C 1,2 C 88 % 1020,7 hPa 0,0 l/m 0 min 0 min 95 W/m 0,0 km/h (0 Bft) 100,00 %
14.01.2021 11:30 1,8 C 2,2 C 1,2 C 88 % 1020,7 hPa 0,0 l/m 0 min 0 min 92 W/m 0,0 km/h (0 Bft) 100,00 %
14.01.2021 11:32 1,8 C 2,2 C 1,2 C 88 % 1020,7 hPa 0,0 l/m 0 min 0 min 90 W/m 0,0 km/h (0 Bft) 100,00 %
14.01.2021 11:34 1,8 C 2,2 C 1,2 C 87 % 1020,7 hPa 0,0 l/m 0 min 0 min 90 W/m 0,0 km/h (0 Bft) 100,00 %
14.01.2021 11:36 1,8 C 2,2 C 1,2 C 87 % 1020,8 hPa 0,0 l/m 0 min 0 min 90 W/m 0,0 km/h (0 Bft) 100,00 %
14.01.2021 11:38 1,8 C 2,2 C 1,2 C 87 % 1020,7 hPa 0,0 l/m 0 min 0 min 91 W/m 0,0 km/h (0 Bft) 97,87 %
14.01.2021 11:40 1,8 C 2,2 C 1,2 C 87 % 1020,7 hPa 0,0 l/m 0 min 0 min 94 W/m 0,0 km/h (0 Bft) 100,00 %
14.01.2021 11:42 1,8 C 2,2 C 1,2 C 87 % 1020,7 hPa 0,0 l/m 0 min 0 min 95 W/m 0,0 km/h (0 Bft) 100,00 %
14.01.2021 11:44 1,8 C 2,2 C 1,2 C 87 % 1020,7 hPa 0,0 l/m 0 min 0 min 97 W/m 0,0 km/h (0 Bft) 100,00 %
14.01.2021 11:46 1,8 C 2,2 C 1,2 C 87 % 1020,6 hPa 0,0 l/m 0 min 0 min 97 W/m 0,0 km/h (0 Bft) 98,04 %
14.01.2021 11:48 1,9 C 2,2 C 1,2 C 87 % 1020,6 hPa 0,0 l/m 0 min 0 min 98 W/m 0,0 km/h (0 Bft) 100,00 %
14.01.2021 11:50 1,9 C 2,2 C 1,2 C 87 % 1020,7 hPa 0,0 l/m 0 min 0 min 97 W/m 0,0 km/h (0 Bft) 100,00 %
14.01.2021 11:52 1,9 C 2,2 C 1,2 C 87 % 1020,6 hPa 0,0 l/m 0 min 0 min 97 W/m 0,0 km/h (0 Bft) 100,00 %
14.01.2021 11:54 1,9 C 2,2 C 1,2 C 86 % 1020,5 hPa 0,0 l/m 0 min 0 min 96 W/m 1,6 km/h (1 Bft) 97,87 %
14.01.2021 11:56 1,9 C 2,2 C 1,2 C 86 % 1020,6 hPa 0,0 l/m 0 min 0 min 96 W/m 0,0 km/h (0 Bft) 100,00 %
14.01.2021 11:58 1,9 C 2,2 C 1,2 C 86 % 1020,6 hPa 0,0 l/m 0 min 0 min 96 W/m 0,0 km/h (0 Bft) 100,00 %
14.01.2021 12:00 1,9 C 2,2 C 1,2 C 86 % 1020,5 hPa 0,0 l/m 0 min 0 min 95 W/m 0,0 km/h (0 Bft) 100,00 %
14.01.2021 12:02 1,9 C 2,2 C 1,2 C 86 % 1020,5 hPa 0,0 l/m 0 min 0 min 100 W/m 0,0 km/h (0 Bft) 97,83 %
14.01.2021 12:04 1,9 C 2,2 C 1,2 C 86 % 1020,5 hPa 0,0 l/m 0 min 0 min 103 W/m 0,0 km/h (0 Bft) 100,00 %
14.01.2021 12:08 2,0 C 2,2 C 1,2 C 86 % 1020,5 hPa 0,0 l/m 0 min 0 min 106 W/m 0,0 km/h (0 Bft) 100,00 %
14.01.2021 12:10 2,0 C 2,2 C 1,2 C 86 % 1020,5 hPa 0,0 l/m 0 min 0 min 111 W/m 0,0 km/h (0 Bft) 100,00 %
14.01.2021 12:12 2,0 C 2,2 C 1,2 C 86 % 1020,5 hPa 0,0 l/m 0 min 0 min 112 W/m 0,0 km/h (0 Bft) 95,74 %
14.01.2021 12:14 2,0 C 2,2 C 1,2 C 86 % 1020,5 hPa 0,0 l/m 0 min 0 min 113 W/m 0,0 km/h (0 Bft) 100,00 %
14.01.2021 12:16 2,0 C 2,2 C 1,2 C 86 % 1020,5 hPa 0,0 l/m 0 min 0 min 108 W/m 0,0 km/h (0 Bft) 97,87 %
14.01.2021 12:18 2,0 C 2,2 C 1,2 C 86 % 1020,5 hPa 0,0 l/m 0 min 0 min 107 W/m 0,0 km/h (0 Bft) 97,87 %
14.01.2021 12:20 2,0 C 2,2 C 1,2 C 86 % 1020,5 hPa 0,0 l/m 0 min 0 min 104 W/m 0,0 km/h (0 Bft) 97,87 %
14.01.2021 12:22 2,0 C 2,2 C 1,2 C 86 % 1020,5 hPa 0,0 l/m 0 min 0 min 102 W/m 0,0 km/h (0 Bft) 97,87 %
14.01.2021 12:24 2,0 C 2,2 C 1,2 C 86 % 1020,4 hPa 0,0 l/m 0 min 0 min 102 W/m 0,0 km/h (0 Bft) 97,87 %
14.01.2021 12:26 2,1 C 2,2 C 1,2 C 86 % 1020,4 hPa 0,0 l/m 0 min 0 min 104 W/m 0,0 km/h (0 Bft) 95,65 %
14.01.2021 12:28 2,1 C 2,2 C 1,7 C 86 % 1020,4 hPa 0,0 l/m 0 min 0 min 107 W/m 0,0 km/h (0 Bft) 95,74 %
14.01.2021 12:30 2,1 C 2,8 C 1,7 C 86 % 1020,3 hPa 0,0 l/m 0 min 0 min 109 W/m 0,0 km/h (0 Bft) 97,87 %
14.01.2021 12:32 2,1 C 2,2 C 1,7 C 85 % 1020,4 hPa 0,0 l/m 0 min 0 min 109 W/m 0,0 km/h (0 Bft) 93,62 %
14.01.2021 12:34 2,1 C 2,8 C 1,7 C 85 % 1020,3 hPa 0,0 l/m 0 min 0 min 111 W/m 0,0 km/h (0 Bft) 95,74 %
14.01.2021 12:36 2,1 C 2,8 C 1,7 C 85 % 1020,3 hPa 0,0 l/m 0 min 0 min 109 W/m 0,0 km/h (0 Bft) 95,74 %
14.01.2021 12:38 2,2 C 2,8 C 1,7 C 86 % 1020,4 hPa 0,0 l/m 0 min 0 min 106 W/m 0,0 km/h (0 Bft) 95,65 %
14.01.2021 12:40 2,2 C 2,8 C 1,2 C 85 % 1020,3 hPa 0,0 l/m 0 min 0 min 102 W/m 0,0 km/h (0 Bft) 95,74 %
14.01.2021 12:42 2,2 C 2,8 C 1,7 C 85 % 1020,3 hPa 0,0 l/m 0 min 0 min 104 W/m 0,0 km/h (0 Bft) 95,74 %
14.01.2021 12:44 2,2 C 2,8 C 1,7 C 85 % 1020,3 hPa 0,0 l/m 0 min 0 min 105 W/m 0,0 km/h (0 Bft) 95,74 %
14.01.2021 12:46 2,3 C 2,8 C 1,7 C 85 % 1020,3 hPa 0,0 l/m 0 min 0 min 105 W/m 0,0 km/h (0 Bft) 95,74 %
14.01.2021 12:48 2,3 C 2,8 C 1,7 C 85 % 1020,3 hPa 0,0 l/m 0 min 0 min 108 W/m 0,0 km/h (0 Bft) 93,62 %
14.01.2021 12:50 2,3 C 2,8 C 1,7 C 85 % 1020,3 hPa 0,0 l/m 0 min 0 min 111 W/m 0,0 km/h (0 Bft) 93,48 %
14.01.2021 12:52 2,3 C 2,8 C 1,7 C 85 % 1020,2 hPa 0,0 l/m 0 min 0 min 115 W/m 0,0 km/h (0 Bft) 95,74 %
14.01.2021 12:54 2,3 C 2,8 C 1,7 C 85 % 1020,2 hPa 0,0 l/m 0 min 0 min 115 W/m 0,0 km/h (0 Bft) 95,74 %
14.01.2021 12:56 2,3 C 2,8 C 1,7 C 85 % 1020,1 hPa 0,0 l/m 0 min 0 min 114 W/m 0,0 km/h (0 Bft) 89,36 %
14.01.2021 12:58 2,4 C 2,8 C 1,7 C 85 % 1020,1 hPa 0,0 l/m 0 min 0 min 115 W/m 0,0 km/h (0 Bft) 82,98 %
14.01.2021 13:00 2,4 C 2,8 C 1,7 C 85 % 1020,1 hPa 0,0 l/m 0 min 0 min 120 W/m 0,0 km/h (0 Bft) 85,11 %
14.01.2021 13:02 2,4 C 2,8 C 1,7 C 85 % 1020,1 hPa 0,0 l/m 0 min 0 min 123 W/m 0,0 km/h (0 Bft) 93,48 %
14.01.2021 13:04 2,4 C 3,3 C 1,7 C 85 % 1020,0 hPa 0,0 l/m 0 min 0 min 125 W/m 0,0 km/h (0 Bft) 72,34 %
14.01.2021 13:06 2,4 C 3,3 C 2,3 C 85 % 1020,0 hPa 0,0 l/m 0 min 0 min 125 W/m 0,0 km/h (0 Bft) 80,85 %
14.01.2021 13:08 2,5 C 3,3 C 1,7 C 85 % 1020,0 hPa 0,0 l/m 0 min 0 min 123 W/m 0,0 km/h (0 Bft) 68,09 %
14.01.2021 13:10 2,5 C 3,3 C 1,7 C 84 % 1019,9 hPa 0,0 l/m 0 min 0 min 121 W/m 0,0 km/h (0 Bft) 68,09 %
14.01.2021 13:12 2,5 C 3,3 C 2,3 C 84 % 1019,9 hPa 0,0 l/m 0 min 0 min 124 W/m 0,0 km/h (0 Bft) 70,21 %
14.01.2021 13:14 2,5 C 3,3 C 2,3 C 84 % 1019,8 hPa 0,0 l/m 0 min 0 min 126 W/m 0,0 km/h (0 Bft) 76,09 %
14.01.2021 13:16 2,5 C 3,3 C 2,3 C 84 % 1019,8 hPa 0,0 l/m 0 min 0 min 130 W/m 0,0 km/h (0 Bft) 89,36 %
14.01.2021 13:18 2,6 C 3,3 C 2,3 C 84 % 1019,7 hPa 0,0 l/m 0 min 0 min 132 W/m 0,0 km/h (0 Bft) 93,62 %
14.01.2021 13:20 2,6 C 3,3 C 2,3 C 84 % 1019,7 hPa 0,0 l/m 0 min 0 min 134 W/m 0,0 km/h (0 Bft) 87,23 %
14.01.2021 13:22 2,6 C 3,3 C 2,3 C 84 % 1019,8 hPa 0,0 l/m 0 min 0 min 134 W/m 0,0 km/h (0 Bft) 82,98 %
14.01.2021 13:24 2,6 C 3,3 C 2,3 C 83 % 1019,7 hPa 0,0 l/m 0 min 0 min 132 W/m 0,0 km/h (0 Bft) 91,49 %
14.01.2021 13:26 2,6 C 3,3 C 2,3 C 83 % 1019,7 hPa 0,0 l/m 0 min 0 min 130 W/m 0,0 km/h (0 Bft) 86,96 %
14.01.2021 13:28 2,7 C 3,3 C 2,3 C 83 % 1019,7 hPa 0,0 l/m 0 min 0 min 129 W/m 0,0 km/h (0 Bft) 89,36 %
14.01.2021 13:30 2,7 C 3,3 C 2,3 C 83 % 1019,7 hPa 0,0 l/m 0 min 0 min 124 W/m 0,0 km/h (0 Bft) 78,72 %
14.01.2021 13:32 2,8 C 3,3 C 2,3 C 83 % 1019,7 hPa 0,0 l/m 0 min 0 min 122 W/m 1,6 km/h (1 Bft) 87,23 %
14.01.2021 13:34 2,8 C 3,3 C 2,3 C 83 % 1019,6 hPa 0,0 l/m 0 min 0 min 119 W/m 0,0 km/h (0 Bft) 85,11 %
14.01.2021 13:36 2,8 C 3,3 C 2,3 C 83 % 1019,6 hPa 0,0 l/m 0 min 0 min 115 W/m 1,6 km/h (1 Bft) 89,13 %
14.01.2021 13:38 2,8 C 3,3 C 2,3 C 83 % 1019,6 hPa 0,0 l/m 0 min 0 min 114 W/m 0,0 km/h (0 Bft) 87,23 %
14.01.2021 13:40 2,9 C 3,3 C 2,3 C 83 % 1019,6 hPa 0,0 l/m 0 min 0 min 114 W/m 0,0 km/h (0 Bft) 89,36 %
14.01.2021 13:42 2,9 C 3,9 C 2,3 C 83 % 1019,6 hPa 0,0 l/m 0 min 0 min 114 W/m 0,0 km/h (0 Bft) 95,74 %
14.01.2021 13:44 2,9 C 3,9 C 2,3 C 83 % 1019,6 hPa 0,0 l/m 0 min 0 min 114 W/m 0,0 km/h (0 Bft) 82,98 %
14.01.2021 13:46 2,9 C 3,9 C 2,8 C 83 % 1019,5 hPa 0,0 l/m 0 min 0 min 116 W/m 0,0 km/h (0 Bft) 89,36 %
14.01.2021 13:48 3,0 C 3,9 C 2,3 C 83 % 1019,5 hPa 0,0 l/m 0 min 0 min 120 W/m 0,0 km/h (0 Bft) 91,49 %
14.01.2021 13:50 3,0 C 3,3 C 2,3 C 83 % 1019,5 hPa 0,0 l/m 0 min 0 min 124 W/m 0,0 km/h (0 Bft) 95,65 %
14.01.2021 13:52 3,0 C 3,3 C 2,3 C 82 % 1019,5 hPa 0,0 l/m 0 min 0 min 127 W/m 0,0 km/h (0 Bft) 70,21 %
14.01.2021 13:54 2,9 C 3,3 C 2,3 C 81 % 1019,5 hPa 0,0 l/m 0 min 0 min 127 W/m 1,6 km/h (1 Bft) 76,60 %
14.01.2021 13:56 2,9 C 3,3 C 2,3 C 81 % 1019,5 hPa 0,0 l/m 0 min 0 min 127 W/m 0,0 km/h (0 Bft) 63,83 %
14.01.2021 13:58 2,9 C 3,3 C 2,3 C 81 % 1019,5 hPa 0,0 l/m 0 min 0 min 127 W/m 0,0 km/h (0 Bft) 85,11 %
14.01.2021 14:00 2,9 C 3,3 C 2,3 C 81 % 1019,5 hPa 0,0 l/m 0 min 0 min 126 W/m 0,0 km/h (0 Bft) 74,47 %
14.01.2021 14:02 2,9 C 3,3 C 2,3 C 81 % 1019,4 hPa 0,0 l/m 0 min 0 min 122 W/m 0,0 km/h (0 Bft) 76,09 %
14.01.2021 14:04 2,9 C 3,3 C 2,8 C 81 % 1019,4 hPa 0,0 l/m 0 min 0 min 118 W/m 0,0 km/h (0 Bft) 82,98 %
14.01.2021 14:06 2,9 C 3,3 C 2,8 C 81 % 1019,4 hPa 0,0 l/m 0 min 0 min 114 W/m 0,0 km/h (0 Bft) 80,85 %
14.01.2021 14:08 2,9 C 3,9 C 2,8 C 81 % 1019,4 hPa 0,0 l/m 0 min 0 min 113 W/m 0,0 km/h (0 Bft) 46,81 %
14.01.2021 14:10 3,0 C 3,3 C 2,3 C 81 % 1019,3 hPa 0,0 l/m 0 min 0 min 113 W/m 0,0 km/h (0 Bft) 82,50 %
14.01.2021 14:12 3,0 C 3,9 C 2,8 C 81 % 1019,3 hPa 0,0 l/m 0 min 0 min 114 W/m 0,0 km/h (0 Bft) 80,43 %
14.01.2021 14:14 3,0 C 3,9 C 2,8 C 81 % 1019,3 hPa 0,0 l/m 0 min 0 min 114 W/m 0,0 km/h (0 Bft) 70,21 %
14.01.2021 14:16 3,0 C 3,9 C 2,8 C 82 % 1019,3 hPa 0,0 l/m 0 min 0 min 113 W/m 0,0 km/h (0 Bft) 76,60 %
14.01.2021 14:18 3,0 C 3,9 C 2,8 C 82 % 1019,2 hPa 0,0 l/m 0 min 0 min 115 W/m 0,0 km/h (0 Bft) 91,49 %
14.01.2021 14:20 3,0 C 3,9 C 2,8 C 82 % 1019,2 hPa 0,0 l/m 0 min 0 min 112 W/m 0,0 km/h (0 Bft) 87,23 %
14.01.2021 14:22 3,0 C 3,9 C 2,8 C 82 % 1019,2 hPa 0,0 l/m 0 min 0 min 117 W/m 0,0 km/h (0 Bft) 93,62 %
14.01.2021 14:24 3,0 C 3,9 C 2,8 C 82 % 1019,2 hPa 0,0 l/m 0 min 0 min 121 W/m 0,0 km/h (0 Bft) 89,13 %
14.01.2021 14:26 3,1 C 3,9 C 2,3 C 81 % 1019,2 hPa 0,0 l/m 0 min 0 min 124 W/m 0,0 km/h (0 Bft) 91,49 %
14.01.2021 14:28 3,1 C 3,9 C 2,8 C 81 % 1019,1 hPa 0,0 l/m 0 min 0 min 133 W/m 0,0 km/h (0 Bft) 93,62 %
14.01.2021 14:30 3,1 C 3,9 C 2,8 C 81 % 1019,1 hPa 0,0 l/m 0 min 0 min 127 W/m 0,0 km/h (0 Bft) 97,87 %
14.01.2021 14:32 3,1 C 4,4 C 2,8 C 81 % 1019,1 hPa 0,0 l/m 0 min 0 min 121 W/m 0,0 km/h (0 Bft) 89,36 %
14.01.2021 14:34 3,1 C 4,4 C 2,8 C 82 % 1019,2 hPa 0,0 l/m 0 min 0 min 103 W/m 0,0 km/h (0 Bft) 93,62 %
14.01.2021 14:36 3,1 C 3,9 C 2,8 C 82 % 1019,2 hPa 0,0 l/m 0 min 0 min 95 W/m 0,0 km/h (0 Bft) 95,65 %
14.01.2021 14:38 3,2 C 3,9 C 2,8 C 82 % 1019,2 hPa 0,0 l/m 0 min 0 min 87 W/m 0,0 km/h (0 Bft) 100,00 %
14.01.2021 14:40 3,2 C 3,9 C 2,3 C 81 % 1019,2 hPa 0,0 l/m 0 min 0 min 83 W/m 0,0 km/h (0 Bft) 91,49 %
14.01.2021 14:42 3,2 C 3,3 C 2,3 C 81 % 1019,2 hPa 0,0 l/m 0 min 0 min 81 W/m 0,0 km/h (0 Bft) 87,23 %
14.01.2021 14:44 3,2 C 3,3 C 2,3 C 81 % 1019,2 hPa 0,0 l/m 0 min 0 min 79 W/m 1,6 km/h (1 Bft) 78,72 %
14.01.2021 14:46 3,2 C 3,3 C 1,7 C 81 % 1019,2 hPa 0,0 l/m 0 min 0 min 75 W/m 0,0 km/h (0 Bft) 82,98 %
14.01.2021 14:48 3,1 C 3,3 C 1,7 C 81 % 1019,2 hPa 0,0 l/m 0 min 0 min 72 W/m 0,0 km/h (0 Bft) 76,09 %
14.01.2021 14:50 3,1 C 3,3 C 1,7 C 81 % 1019,2 hPa 0,0 l/m 0 min 0 min 72 W/m 0,0 km/h (0 Bft) 78,72 %
14.01.2021 14:52 3,1 C 2,8 C 1,7 C 81 % 1019,2 hPa 0,0 l/m 0 min 0 min 74 W/m 0,0 km/h (0 Bft) 97,87 %
14.01.2021 14:54 3,1 C 2,8 C 1,7 C 80 % 1019,2 hPa 0,0 l/m 0 min 0 min 77 W/m 0,0 km/h (0 Bft) 93,62 %
14.01.2021 14:56 3,1 C 2,8 C 1,7 C 80 % 1019,2 hPa 0,0 l/m 0 min 0 min 82 W/m 0,0 km/h (0 Bft) 95,74 %
14.01.2021 14:58 3,1 C 2,8 C 1,7 C 80 % 1019,2 hPa 0,0 l/m 0 min 0 min 84 W/m 0,0 km/h (0 Bft) 93,62 %
14.01.2021 15:00 3,1 C 2,8 C 1,7 C 80 % 1019,3 hPa 0,0 l/m 0 min 0 min 84 W/m 0,0 km/h (0 Bft) 91,30 %
14.01.2021 15:02 3,1 C 2,8 C 1,7 C 80 % 1019,2 hPa 0,0 l/m 0 min 0 min 86 W/m 1,6 km/h (1 Bft) 78,72 %
14.01.2021 15:04 3,1 C 2,8 C 1,7 C 81 % 1019,2 hPa 0,0 l/m 0 min 0 min 82 W/m 0,0 km/h (0 Bft) 95,35 %
14.01.2021 15:06 3,0 C 2,8 C 1,7 C 81 % 1019,2 hPa 0,0 l/m 0 min 0 min 80 W/m 0,0 km/h (0 Bft) 97,87 %
14.01.2021 15:08 3,0 C 2,8 C 1,7 C 81 % 1019,2 hPa 0,0 l/m 0 min 0 min 80 W/m 0,0 km/h (0 Bft) 97,87 %
14.01.2021 15:10 3,0 C 2,8 C 1,7 C 81 % 1019,2 hPa 0,0 l/m 0 min 0 min 82 W/m 0,0 km/h (0 Bft) 91,49 %
14.01.2021 15:12 3,0 C 2,8 C 1,7 C 81 % 1019,2 hPa 0,0 l/m 0 min 0 min 83 W/m 0,0 km/h (0 Bft) 95,74 %
14.01.2021 15:14 3,0 C 2,8 C 1,7 C 81 % 1019,2 hPa 0,0 l/m 0 min 0 min 80 W/m 0,0 km/h (0 Bft) 95,92 %
14.01.2021 15:16 3,0 C 2,8 C 1,7 C 81 % 1019,2 hPa 0,0 l/m 0 min 0 min 77 W/m 0,0 km/h (0 Bft) 97,87 %
14.01.2021 15:18 3,0 C 2,8 C 1,7 C 81 % 1019,3 hPa 0,0 l/m 0 min 0 min 73 W/m 0,0 km/h (0 Bft) 97,87 %
14.01.2021 15:20 3,0 C 2,8 C 1,2 C 81 % 1019,2 hPa 0,0 l/m 0 min 0 min 69 W/m 0,0 km/h (0 Bft) 97,87 %
14.01.2021 15:22 3,0 C 2,8 C 1,2 C 81 % 1019,2 hPa 0,0 l/m 0 min 0 min 69 W/m 0,0 km/h (0 Bft) 97,87 %
14.01.2021 15:24 3,0 C 2,8 C 1,2 C 81 % 1019,2 hPa 0,0 l/m 0 min 0 min 69 W/m 0,0 km/h (0 Bft) 97,87 %
14.01.2021 15:26 3,0 C 2,8 C 1,2 C 81 % 1019,2 hPa 0,0 l/m 0 min 0 min 69 W/m 0,0 km/h (0 Bft) 95,74 %
14.01.2021 15:28 3,0 C 2,8 C 1,2 C 81 % 1019,1 hPa 0,0 l/m 0 min 0 min 69 W/m 0,0 km/h (0 Bft) 97,67 %
14.01.2021 15:30 3,0 C 2,8 C 1,2 C 81 % 1019,1 hPa 0,0 l/m 0 min 0 min 70 W/m 0,0 km/h (0 Bft) 100,00 %
14.01.2021 15:32 3,0 C 2,8 C 1,2 C 81 % 1019,2 hPa 0,0 l/m 0 min 0 min 70 W/m 0,0 km/h (0 Bft) 97,87 %
14.01.2021 15:34 3,0 C 2,8 C 1,2 C 81 % 1019,2 hPa 0,0 l/m 0 min 0 min 67 W/m 0,0 km/h (0 Bft) 100,00 %
14.01.2021 15:36 3,0 C 2,8 C 1,2 C 81 % 1019,1 hPa 0,0 l/m 0 min 0 min 62 W/m 0,0 km/h (0 Bft) 97,87 %
14.01.2021 15:38 2,9 C 2,8 C 1,2 C 81 % 1019,1 hPa 0,0 l/m 0 min 0 min 57 W/m 0,0 km/h (0 Bft) 97,83 %
14.01.2021 15:40 2,9 C 2,8 C 1,2 C 82 % 1019,1 hPa 0,0 l/m 0 min 0 min 52 W/m 1,6 km/h (1 Bft) 93,62 %
14.01.2021 15:42 2,9 C 2,8 C 1,2 C 82 % 1019,1 hPa 0,0 l/m 0 min 0 min 50 W/m 0,0 km/h (0 Bft) 91,49 %
14.01.2021 15:44 2,9 C 2,2 C 0,6 C 82 % 1019,1 hPa 0,0 l/m 0 min 0 min 47 W/m 0,0 km/h (0 Bft) 95,74 %
14.01.2021 15:46 2,9 C 2,2 C 0,6 C 82 % 1019,1 hPa 0,0 l/m 0 min 0 min 45 W/m 0,0 km/h (0 Bft) 100,00 %
14.01.2021 15:48 2,9 C 2,2 C 0,6 C 82 % 1019,1 hPa 0,0 l/m 0 min 0 min 44 W/m 0,0 km/h (0 Bft) 100,00 %
14.01.2021 15:50 2,8 C 2,2 C 0,6 C 82 % 1019,1 hPa 0,0 l/m 0 min 0 min 41 W/m 0,0 km/h (0 Bft) 100,00 %
14.01.2021 15:52 2,8 C 2,2 C 0,6 C 82 % 1019,1 hPa 0,0 l/m 0 min 0 min 40 W/m 0,0 km/h (0 Bft) 97,87 %
14.01.2021 15:54 2,8 C 2,2 C 0,6 C 82 % 1019,2 hPa 0,0 l/m 0 min 0 min 39 W/m 0,0 km/h (0 Bft) 100,00 %
14.01.2021 15:56 2,8 C 2,2 C 0,6 C 82 % 1019,1 hPa 0,0 l/m 0 min 0 min 38 W/m 0,0 km/h (0 Bft) 85,11 %
14.01.2021 15:58 2,7 C 2,2 C 0,6 C 82 % 1019,1 hPa 0,0 l/m 0 min 0 min 35 W/m 1,6 km/h (1 Bft) 91,49 %
14.01.2021 16:00 2,6 C 2,2 C 0,6 C 83 % 1019,1 hPa 0,0 l/m 0 min 0 min 35 W/m 0,0 km/h (0 Bft) 97,83 %
14.01.2021 16:02 2,6 C 2,2 C 0,6 C 83 % 1019,1 hPa 0,0 l/m 0 min 0 min 34 W/m 0,0 km/h (0 Bft) 95,74 %
14.01.2021 16:04 2,6 C 2,2 C 0,6 C 83 % 1019,1 hPa 0,0 l/m 0 min 0 min 34 W/m 0,0 km/h (0 Bft) 89,36 %
14.01.2021 16:06 2,6 C 2,2 C 0,6 C 83 % 1019,1 hPa 0,0 l/m 0 min 0 min 34 W/m 0,0 km/h (0 Bft) 97,87 %
14.01.2021 16:08 2,6 C 2,2 C 0,6 C 83 % 1019,1 hPa 0,0 l/m 0 min 0 min 33 W/m 0,0 km/h (0 Bft) 97,87 %
14.01.2021 16:10 2,6 C 2,2 C 0,6 C 83 % 1019,2 hPa 0,0 l/m 0 min 0 min 33 W/m 0,0 km/h (0 Bft) 100,00 %
14.01.2021 16:12 2,6 C 2,2 C 0,6 C 83 % 1019,2 hPa 0,0 l/m 0 min 0 min 33 W/m 0,0 km/h (0 Bft) 97,83 %
14.01.2021 16:14 2,6 C 2,2 C 0,6 C 83 % 1019,1 hPa 0,0 l/m 0 min 0 min 32 W/m 0,0 km/h (0 Bft) 100,00 %
14.01.2021 16:16 2,6 C 2,2 C 0,0 C 83 % 1019,2 hPa 0,0 l/m 0 min 0 min 31 W/m 0,0 km/h (0 Bft) 56,52 %
14.01.2021 16:18 2,5 C 2,2 C 0,0 C 83 % 1019,1 hPa 0,0 l/m 0 min 0 min 27 W/m 0,0 km/h (0 Bft) 100,00 %
14.01.2021 16:20 2,5 C 1,7 C 0,0 C 83 % 1019,1 hPa 0,0 l/m 0 min 0 min 25 W/m 0,0 km/h (0 Bft) 100,00 %
14.01.2021 16:22 2,5 C 1,7 C 0,0 C 84 % 1019,1 hPa 0,0 l/m 0 min 0 min 22 W/m 0,0 km/h (0 Bft) 100,00 %
14.01.2021 16:24 2,5 C 1,7 C 0,0 C 84 % 1019,2 hPa 0,0 l/m 0 min 0 min 20 W/m 0,0 km/h (0 Bft) 100,00 %
14.01.2021 16:26 2,5 C 1,7 C 0,0 C 84 % 1019,1 hPa 0,0 l/m 0 min 0 min 16 W/m 0,0 km/h (0 Bft) 100,00 %
14.01.2021 16:28 2,5 C 1,7 C 0,0 C 84 % 1019,2 hPa 0,0 l/m 0 min 0 min 14 W/m 0,0 km/h (0 Bft) 100,00 %
14.01.2021 16:30 2,5 C 1,7 C 0,0 C 84 % 1019,2 hPa 0,0 l/m 0 min 0 min 12 W/m 0,0 km/h (0 Bft) 100,00 %
14.01.2021 16:32 2,4 C 1,7 C 0,0 C 84 % 1019,2 hPa 0,0 l/m 0 min 0 min 10 W/m 0,0 km/h (0 Bft) 100,00 %
14.01.2021 16:34 2,4 C 1,7 C 0,0 C 84 % 1019,2 hPa 0,0 l/m 0 min 0 min 9 W/m 0,0 km/h (0 Bft) 100,00 %
14.01.2021 16:36 2,4 C 1,7 C 0,0 C 84 % 1019,1 hPa 0,0 l/m 0 min 0 min 7 W/m 0,0 km/h (0 Bft) 100,00 %
14.01.2021 16:38 2,4 C 1,1 C 0,0 C 84 % 1019,2 hPa 0,0 l/m 0 min 0 min 7 W/m 0,0 km/h (0 Bft) 95,74 %
14.01.2021 16:40 2,3 C 1,1 C 0,0 C 84 % 1019,2 hPa 0,0 l/m 0 min 0 min 5 W/m 0,0 km/h (0 Bft) 100,00 %
14.01.2021 16:42 2,3 C 1,1 C -0,5 C 85 % 1019,2 hPa 0,0 l/m 0 min 0 min 2 W/m 0,0 km/h (0 Bft) 100,00 %
14.01.2021 16:44 2,3 C 1,1 C -0,5 C 85 % 1019,2 hPa 0,0 l/m 0 min 0 min 0 W/m 0,0 km/h (0 Bft) 97,83 %
14.01.2021 16:46 2,3 C 1,1 C -0,5 C 84 % 1019,3 hPa 0,0 l/m 0 min 0 min 0 W/m 0,0 km/h (0 Bft) 100,00 %
14.01.2021 16:48 2,2 C 1,1 C -0,5 C 85 % 1019,2 hPa 0,0 l/m 0 min 0 min 0 W/m 0,0 km/h (0 Bft) 95,74 %
14.01.2021 16:50 2,2 C 1,1 C -0,5 C 85 % 1019,2 hPa 0,0 l/m 0 min 0 min 0 W/m 0,0 km/h (0 Bft) 95,45 %
14.01.2021 16:52 2,2 C 1,1 C -0,5 C 85 % 1019,3 hPa 0,0 l/m 0 min 0 min 0 W/m 0,0 km/h (0 Bft) 95,74 %
14.01.2021 16:54 2,1 C 1,1 C -0,5 C 85 % 1019,3 hPa 0,0 l/m 0 min 0 min 0 W/m 0,0 km/h (0 Bft) 97,87 %
14.01.2021 16:56 2,1 C 1,1 C -0,5 C 85 % 1019,4 hPa 0,0 l/m 0 min 0 min 0 W/m 0,0 km/h (0 Bft) 95,74 %
14.01.2021 16:58 2,1 C 1,1 C -0,5 C 85 % 1019,3 hPa 0,0 l/m 0 min 0 min 0 W/m 0,0 km/h (0 Bft) 95,74 %
14.01.2021 17:00 2,1 C 1,1 C -0,5 C 85 % 1019,4 hPa 0,0 l/m 0 min 0 min 0 W/m 0,0 km/h (0 Bft) 93,48 %
14.01.2021 17:02 2,0 C 1,1 C -0,5 C 85 % 1019,4 hPa 0,0 l/m 0 min 0 min 0 W/m 0,0 km/h (0 Bft) 95,74 %
14.01.2021 17:04 2,0 C 1,1 C -0,5 C 85 % 1019,4 hPa 0,0 l/m 0 min 0 min 0 W/m 0,0 km/h (0 Bft) 95,74 %
14.01.2021 17:06 2,0 C 1,1 C -0,5 C 85 % 1019,4 hPa 0,0 l/m 0 min 0 min 0 W/m 0,0 km/h (0 Bft) 95,74 %
14.01.2021 17:08 2,0 C 1,1 C -0,5 C 85 % 1019,4 hPa 0,0 l/m 0 min 0 min 0 W/m 0,0 km/h (0 Bft) 95,74 %
14.01.2021 17:10 1,9 C 1,1 C -0,5 C 85 % 1019,4 hPa 0,0 l/m 0 min 0 min 0 W/m 0,0 km/h (0 Bft) 95,74 %
14.01.2021 17:12 1,9 C 1,1 C -0,5 C 85 % 1019,4 hPa 0,0 l/m 0 min 0 min 0 W/m 0,0 km/h (0 Bft) 95,65 %
14.01.2021 17:14 1,9 C 1,1 C -0,5 C 85 % 1019,4 hPa 0,0 l/m 0 min 0 min 0 W/m 0,0 km/h (0 Bft) 97,87 %
14.01.2021 17:16 1,9 C 1,1 C -0,5 C 85 % 1019,4 hPa 0,0 l/m 0 min 0 min 0 W/m 0,0 km/h (0 Bft) 91,49 %
14.01.2021 17:18 1,9 C 1,1 C -0,5 C 85 % 1019,5 hPa 0,0 l/m 0 min 0 min 0 W/m 0,0 km/h (0 Bft) 95,74 %
14.01.2021 17:20 1,9 C 1,1 C -0,5 C 85 % 1019,4 hPa 0,0 l/m 0 min 0 min 0 W/m 0,0 km/h (0 Bft) 97,87 %
14.01.2021 17:22 1,9 C 1,1 C -0,5 C 85 % 1019,4 hPa 0,0 l/m 0 min 0 min 0 W/m 0,0 km/h (0 Bft) 95,74 %
14.01.2021 17:24 1,8 C 1,1 C -0,5 C 85 % 1019,3 hPa 0,0 l/m 0 min 0 min 0 W/m 0,0 km/h (0 Bft) 97,83 %
14.01.2021 17:26 1,8 C 1,1 C -0,5 C 85 % 1019,3 hPa 0,0 l/m 0 min 0 min 0 W/m 0,0 km/h (0 Bft) 97,87 %
14.01.2021 17:28 1,8 C 1,1 C -0,5 C 85 % 1019,4 hPa 0,0 l/m 0 min 0 min 0 W/m 0,0 km/h (0 Bft) 95,74 %
14.01.2021 17:30 1,8 C 1,1 C -0,5 C 85 % 1019,4 hPa 0,0 l/m 0 min 0 min 0 W/m 0,0 km/h (0 Bft) 93,62 %
14.01.2021 17:32 1,8 C 1,1 C -0,5 C 85 % 1019,4 hPa 0,0 l/m 0 min 0 min 0 W/m 0,0 km/h (0 Bft) 91,49 %
14.01.2021 17:34 1,8 C 1,1 C -0,5 C 85 % 1019,4 hPa 0,0 l/m 0 min 0 min 0 W/m 0,0 km/h (0 Bft) 95,74 %
14.01.2021 17:36 1,8 C 1,1 C -0,5 C 85 % 1019,4 hPa 0,0 l/m 0 min 0 min 0 W/m 0,0 km/h (0 Bft) 93,48 %
14.01.2021 17:38 1,8 C 1,1 C -0,5 C 85 % 1019,3 hPa 0,0 l/m 0 min 0 min 0 W/m 0,0 km/h (0 Bft) 93,62 %
14.01.2021 17:40 1,7 C 1,1 C -0,5 C 85 % 1019,4 hPa 0,0 l/m 0 min 0 min 0 W/m 0,0 km/h (0 Bft) 95,74 %
14.01.2021 17:42 1,7 C 1,1 C -0,5 C 85 % 1019,4 hPa 0,0 l/m 0 min 0 min 0 W/m 0,0 km/h (0 Bft) 95,74 %
14.01.2021 17:44 1,7 C 1,1 C -0,5 C 85 % 1019,4 hPa 0,0 l/m 0 min 0 min 0 W/m 0,0 km/h (0 Bft) 95,74 %
14.01.2021 17:46 1,7 C 1,1 C -0,5 C 85 % 1019,4 hPa 0,0 l/m 0 min 0 min 0 W/m 0,0 km/h (0 Bft) 89,36 %
14.01.2021 17:48 1,7 C 1,1 C -0,5 C 85 % 1019,4 hPa 0,0 l/m 0 min 0 min 0 W/m 0,0 km/h (0 Bft) 95,65 %
14.01.2021 17:50 1,6 C 1,1 C -1,1 C 85 % 1019,3 hPa 0,0 l/m 0 min 0 min 0 W/m 0,0 km/h (0 Bft) 95,74 %
14.01.2021 17:52 1,6 C 1,1 C -1,1 C 85 % 1019,4 hPa 0,0 l/m 0 min 0 min 0 W/m 0,0 km/h (0 Bft) 95,74 %
14.01.2021 17:54 1,6 C 1,1 C -1,1 C 85 % 1019,4 hPa 0,0 l/m 0 min 0 min 0 W/m 0,0 km/h (0 Bft) 93,62 %
14.01.2021 17:56 1,6 C 0,6 C -1,1 C 85 % 1019,4 hPa 0,0 l/m 0 min 0 min 0 W/m 0,0 km/h (0 Bft) 93,62 %
14.01.2021 17:58 1,6 C 0,6 C -1,1 C 85 % 1019,3 hPa 0,0 l/m 0 min 0 min 0 W/m 0,0 km/h (0 Bft) 82,98 %
14.01.2021 18:00 1,6 C 0,6 C -1,1 C 85 % 1019,3 hPa 0,0 l/m 0 min 0 min 0 W/m 0,0 km/h (0 Bft) 62,16 %
14.01.2021 18:02 1,6 C 0,6 C -1,1 C 85 % 1019,4 hPa 0,0 l/m 0 min 0 min 0 W/m 0,0 km/h (0 Bft) 95,74 %
14.01.2021 18:04 1,6 C 0,6 C -1,1 C 85 % 1019,4 hPa 0,0 l/m 0 min 0 min 0 W/m 0,0 km/h (0 Bft) 93,62 %
14.01.2021 18:08 1,5 C 0,6 C -1,1 C 85 % 1019,3 hPa 0,0 l/m 0 min 0 min 0 W/m 0,0 km/h (0 Bft) 94,68 %
14.01.2021 18:10 1,5 C 0,6 C -1,1 C 85 % 1019,4 hPa 0,0 l/m 0 min 0 min 0 W/m 0,0 km/h (0 Bft) 95,74 %
14.01.2021 18:12 1,5 C 0,6 C -1,1 C 86 % 1019,4 hPa 0,0 l/m 0 min 0 min 0 W/m 0,0 km/h (0 Bft) 95,65 %
14.01.2021 18:14 1,5 C 0,6 C -1,1 C 86 % 1019,4 hPa 0,0 l/m 0 min 0 min 0 W/m 0,0 km/h (0 Bft) 93,62 %
14.01.2021 18:16 1,5 C 0,6 C -1,1 C 86 % 1019,4 hPa 0,0 l/m 0 min 0 min 0 W/m 0,0 km/h (0 Bft) 95,74 %
14.01.2021 18:18 1,5 C 0,6 C -1,1 C 86 % 1019,4 hPa 0,0 l/m 0 min 0 min 0 W/m 0,0 km/h (0 Bft) 95,74 %
14.01.2021 18:20 1,5 C 0,6 C -1,1 C 86 % 1019,4 hPa 0,0 l/m 0 min 0 min 0 W/m 0,0 km/h (0 Bft) 91,49 %
14.01.2021 18:22 1,4 C 0,6 C -1,1 C 86 % 1019,4 hPa 0,0 l/m 0 min 0 min 0 W/m 0,0 km/h (0 Bft) 97,87 %
14.01.2021 18:24 1,4 C 0,6 C -1,1 C 86 % 1019,4 hPa 0,0 l/m 0 min 0 min 0 W/m 0,0 km/h (0 Bft) 97,83 %
14.01.2021 18:26 1,4 C 0,6 C -1,1 C 86 % 1019,4 hPa 0,0 l/m 0 min 0 min 0 W/m 0,0 km/h (0 Bft) 97,87 %
14.01.2021 18:28 1,4 C 0,6 C -1,1 C 86 % 1019,4 hPa 0,0 l/m 0 min 0 min 0 W/m 0,0 km/h (0 Bft) 97,87 %
14.01.2021 18:30 1,4 C 0,6 C -1,1 C 86 % 1019,4 hPa 0,0 l/m 0 min 0 min 0 W/m 0,0 km/h (0 Bft) 95,74 %
14.01.2021 18:32 1,4 C 0,6 C -1,1 C 86 % 1019,4 hPa 0,0 l/m 0 min 0 min 0 W/m 0,0 km/h (0 Bft) 100,00 %
14.01.2021 18:34 1,4 C 0,6 C -1,1 C 86 % 1019,4 hPa 0,0 l/m 0 min 0 min 0 W/m 0,0 km/h (0 Bft) 100,00 %
14.01.2021 18:36 1,4 C 0,6 C -1,1 C 86 % 1019,4 hPa 0,0 l/m 0 min 0 min 0 W/m 0,0 km/h (0 Bft) 95,74 %
14.01.2021 18:38 1,4 C 0,6 C -1,1 C 86 % 1019,4 hPa 0,0 l/m 0 min 0 min 0 W/m 0,0 km/h (0 Bft) 97,87 %
14.01.2021 18:40 1,4 C 0,6 C -1,1 C 86 % 1019,4 hPa 0,0 l/m 0 min 0 min 0 W/m 0,0 km/h (0 Bft) 100,00 %
14.01.2021 18:42 1,4 C 0,6 C -1,1 C 86 % 1019,4 hPa 0,0 l/m 0 min 0 min 0 W/m 0,0 km/h (0 Bft) 100,00 %
14.01.2021 18:44 1,4 C 0,6 C -1,1 C 86 % 1019,4 hPa 0,0 l/m 0 min 0 min 0 W/m 0,0 km/h (0 Bft) 97,87 %
14.01.2021 18:46 1,3 C 0,6 C -1,1 C 86 % 1019,5 hPa 0,0 l/m 0 min 0 min 0 W/m 0,0 km/h (0 Bft) 97,83 %
14.01.2021 18:48 1,3 C 0,6 C -1,1 C 86 % 1019,5 hPa 0,0 l/m 0 min 0 min 0 W/m 0,0 km/h (0 Bft) 100,00 %
14.01.2021 18:50 1,3 C 0,6 C -1,1 C 86 % 1019,5 hPa 0,0 l/m 0 min 0 min 0 W/m 0,0 km/h (0 Bft) 100,00 %
14.01.2021 18:52 1,3 C 0,6 C -1,1 C 86 % 1019,5 hPa 0,0 l/m 0 min 0 min 0 W/m 0,0 km/h (0 Bft) 100,00 %
14.01.2021 18:54 1,3 C 0,6 C -1,6 C 86 % 1019,5 hPa 0,0 l/m 0 min 0 min 0 W/m 0,0 km/h (0 Bft) 97,83 %
14.01.2021 18:56 1,3 C 0,6 C -1,6 C 87 % 1019,5 hPa 0,0 l/m 0 min 0 min 0 W/m 0,0 km/h (0 Bft) 100,00 %
14.01.2021 18:58 1,3 C 0,6 C -1,6 C 87 % 1019,5 hPa 0,0 l/m 0 min 0 min 0 W/m 0,0 km/h (0 Bft) 97,87 %
14.01.2021 19:00 1,2 C 0,6 C -1,6 C 87 % 1019,6 hPa 0,0 l/m 0 min 0 min 0 W/m 0,0 km/h (0 Bft) 97,87 %
14.01.2021 19:02 1,2 C 0,6 C -1,6 C 87 % 1019,6 hPa 0,0 l/m 0 min 0 min 0 W/m 0,0 km/h (0 Bft) 97,87 %
14.01.2021 19:04 1,1 C 0,6 C -1,6 C 87 % 1019,6 hPa 0,0 l/m 0 min 0 min 0 W/m 0,0 km/h (0 Bft) 95,74 %
14.01.2021 19:06 1,1 C 0,6 C -1,6 C 87 % 1019,6 hPa 0,0 l/m 0 min 0 min 0 W/m 0,0 km/h (0 Bft) 97,83 %
14.01.2021 19:08 1,1 C 0,0 C -1,6 C 87 % 1019,6 hPa 0,0 l/m 0 min 0 min 0 W/m 0,0 km/h (0 Bft) 97,87 %
14.01.2021 19:10 1,1 C 0,0 C -1,6 C 87 % 1019,6 hPa 0,0 l/m 0 min 0 min 0 W/m 0,0 km/h (0 Bft) 100,00 %
14.01.2021 19:12 1,1 C 0,0 C -1,6 C 87 % 1019,6 hPa 0,0 l/m 0 min 0 min 0 W/m 0,0 km/h (0 Bft) 100,00 %
14.01.2021 19:14 1,0 C 0,0 C -1,6 C 87 % 1019,6 hPa 0,0 l/m 0 min 0 min 0 W/m 0,0 km/h (0 Bft) 97,87 %
14.01.2021 19:16 1,0 C 0,0 C -1,6 C 87 % 1019,6 hPa 0,0 l/m 0 min 0 min 0 W/m 0,0 km/h (0 Bft) 95,74 %
14.01.2021 19:18 1,0 C 0,0 C -1,6 C 87 % 1019,6 hPa 0,0 l/m 0 min 0 min 0 W/m 0,0 km/h (0 Bft) 100,00 %
14.01.2021 19:20 1,0 C 0,0 C -1,6 C 87 % 1019,6 hPa 0,0 l/m 0 min 0 min 0 W/m 0,0 km/h (0 Bft) 100,00 %
14.01.2021 19:22 1,0 C 0,0 C -1,6 C 87 % 1019,7 hPa 0,0 l/m 0 min 0 min 0 W/m 0,0 km/h (0 Bft) 100,00 %
14.01.2021 19:24 0,9 C 0,0 C -1,6 C 87 % 1019,7 hPa 0,0 l/m 0 min 0 min 0 W/m 0,0 km/h (0 Bft) 100,00 %
14.01.2021 19:26 0,9 C 0,0 C -1,6 C 87 % 1019,6 hPa 0,0 l/m 0 min 0 min 0 W/m 0,0 km/h (0 Bft) 95,74 %
14.01.2021 19:28 0,9 C 0,0 C -1,6 C 87 % 1019,7 hPa 0,0 l/m 0 min 0 min 0 W/m 0,0 km/h (0 Bft) 93,62 %
14.01.2021 19:30 0,9 C 0,0 C -1,6 C 87 % 1019,7 hPa 0,0 l/m 0 min 0 min 0 W/m 0,0 km/h (0 Bft) 97,83 %
14.01.2021 19:32 0,9 C 0,0 C -1,6 C 88 % 1019,7 hPa 0,0 l/m 0 min 0 min 0 W/m 0,0 km/h (0 Bft) 97,87 %
14.01.2021 19:34 0,8 C 0,0 C -2,2 C 87 % 1019,7 hPa 0,0 l/m 0 min 0 min 0 W/m 0,0 km/h (0 Bft) 97,87 %
14.01.2021 19:36 0,8 C 0,0 C -2,2 C 88 % 1019,7 hPa 0,0 l/m 0 min 0 min 0 W/m 0,0 km/h (0 Bft) 97,87 %
14.01.2021 19:38 0,7 C 0,0 C -2,2 C 88 % 1019,7 hPa 0,0 l/m 0 min 0 min 0 W/m 0,0 km/h (0 Bft) 97,87 %
14.01.2021 19:40 0,7 C 0,0 C -2,2 C 88 % 1019,7 hPa 0,0 l/m 0 min 0 min 0 W/m 0,0 km/h (0 Bft) 97,87 %
14.01.2021 19:42 0,6 C -0,6 C -2,2 C 88 % 1019,7 hPa 0,0 l/m 0 min 0 min 0 W/m 0,0 km/h (0 Bft) 95,65 %
14.01.2021 19:44 0,6 C -0,6 C -2,2 C 88 % 1019,8 hPa 0,0 l/m 0 min 0 min 0 W/m 0,0 km/h (0 Bft) 97,87 %
14.01.2021 19:46 0,6 C -0,6 C -2,2 C 88 % 1019,8 hPa 0,0 l/m 0 min 0 min 0 W/m 0,0 km/h (0 Bft) 97,87 %
14.01.2021 19:48 0,5 C -0,6 C -2,2 C 88 % 1019,8 hPa 0,0 l/m 0 min 0 min 0 W/m 0,0 km/h (0 Bft) 97,87 %
14.01.2021 19:50 0,5 C -0,6 C -2,2 C 88 % 1019,8 hPa 0,0 l/m 0 min 0 min 0 W/m 0,0 km/h (0 Bft) 97,87 %
14.01.2021 19:52 0,5 C -0,6 C -2,2 C 88 % 1019,8 hPa 0,0 l/m 0 min 0 min 0 W/m 0,0 km/h (0 Bft) 97,87 %
14.01.2021 19:54 0,5 C -0,6 C -2,2 C 88 % 1019,8 hPa 0,0 l/m 0 min 0 min 0 W/m 0,0 km/h (0 Bft) 97,83 %
14.01.2021 19:56 0,5 C -0,6 C -2,2 C 88 % 1019,8 hPa 0,0 l/m 0 min 0 min 0 W/m 0,0 km/h (0 Bft) 93,62 %
14.01.2021 19:58 0,5 C -0,6 C -2,2 C 88 % 1019,8 hPa 0,0 l/m 0 min 0 min 0 W/m 0,0 km/h (0 Bft) 97,87 %
14.01.2021 20:00 0,5 C -0,6 C -2,2 C 88 % 1019,8 hPa 0,0 l/m 0 min 0 min 0 W/m 0,0 km/h (0 Bft) 93,62 %
14.01.2021 20:02 0,4 C -1,1 C -2,7 C 88 % 1019,8 hPa 0,0 l/m 0 min 0 min 0 W/m 0,0 km/h (0 Bft) 96,08 %
14.01.2021 20:04 0,4 C -1,1 C -2,2 C 88 % 1019,8 hPa 0,0 l/m 0 min 0 min 0 W/m 0,0 km/h (0 Bft) 100,00 %
14.01.2021 20:06 0,4 C -1,1 C -2,7 C 88 % 1019,9 hPa 0,0 l/m 0 min 0 min 0 W/m 0,0 km/h (0 Bft) 100,00 %
14.01.2021 20:08 0,4 C -1,1 C -2,7 C 88 % 1019,8 hPa 0,0 l/m 0 min 0 min 0 W/m 0,0 km/h (0 Bft) 97,87 %
14.01.2021 20:10 0,3 C -1,1 C -2,7 C 88 % 1019,8 hPa 0,0 l/m 0 min 0 min 0 W/m 0,0 km/h (0 Bft) 100,00 %
14.01.2021 20:12 0,3 C -1,1 C -2,7 C 88 % 1019,9 hPa 0,0 l/m 0 min 0 min 0 W/m 0,0 km/h (0 Bft) 97,87 %
14.01.2021 20:14 0,3 C -1,1 C -2,7 C 88 % 1019,8 hPa 0,0 l/m 0 min 0 min 0 W/m 0,0 km/h (0 Bft) 100,00 %
14.01.2021 20:16 0,3 C -1,1 C -2,7 C 88 % 1019,8 hPa 0,0 l/m 0 min 0 min 0 W/m 0,0 km/h (0 Bft) 100,00 %
14.01.2021 20:18 0,2 C -1,1 C -2,7 C 88 % 1019,9 hPa 0,0 l/m 0 min 0 min 0 W/m 0,0 km/h (0 Bft) 53,33 %
14.01.2021 20:20 0,2 C -1,1 C -2,7 C 89 % 1019,9 hPa 0,0 l/m 0 min 0 min 0 W/m 0,0 km/h (0 Bft) 100,00 %
14.01.2021 20:22 0,1 C -1,1 C -2,7 C 89 % 1019,9 hPa 0,0 l/m 0 min 0 min 0 W/m 0,0 km/h (0 Bft) 100,00 %
14.01.2021 20:24 0,1 C -1,1 C -2,7 C 89 % 1019,8 hPa 0,0 l/m 0 min 0 min 0 W/m 0,0 km/h (0 Bft) 100,00 %
14.01.2021 20:26 0,1 C -1,1 C -2,7 C 89 % 1019,9 hPa 0,0 l/m 0 min 0 min 0 W/m 0,0 km/h (0 Bft) 100,00 %
14.01.2021 20:28 0,1 C -1,1 C -2,7 C 89 % 1020,0 hPa 0,0 l/m 0 min 0 min 0 W/m 0,0 km/h (0 Bft) 100,00 %
14.01.2021 20:30 0,0 C -1,1 C -2,7 C 89 % 1020,0 hPa 0,0 l/m 0 min 0 min 0 W/m 0,0 km/h (0 Bft) 100,00 %
14.01.2021 20:32 0,0 C -1,1 C -2,7 C 89 % 1020,1 hPa 0,0 l/m 0 min 0 min 0 W/m 0,0 km/h (0 Bft) 100,00 %
14.01.2021 20:34 0,0 C -1,1 C -2,7 C 89 % 1020,1 hPa 0,0 l/m 0 min 0 min 0 W/m 0,0 km/h (0 Bft) 100,00 %
14.01.2021 20:36 0,0 C -1,1 C -2,7 C 89 % 1020,0 hPa 0,0 l/m 0 min 0 min 0 W/m 0,0 km/h (0 Bft) 97,87 %
14.01.2021 20:38 0,0 C -1,1 C -2,7 C 89 % 1020,1 hPa 0,0 l/m 0 min 0 min 0 W/m 0,0 km/h (0 Bft) 97,87 %
14.01.2021 20:40 -0,1 C -1,1 C -2,7 C 89 % 1020,1 hPa 0,0 l/m 0 min 0 min 0 W/m 0,0 km/h (0 Bft) 97,83 %
14.01.2021 20:42 -0,1 C -1,1 C -2,7 C 89 % 1020,1 hPa 0,0 l/m 0 min 0 min 0 W/m 0,0 km/h (0 Bft) 97,14 %
14.01.2021 20:44 -0,1 C -1,1 C -2,7 C 89 % 1020,1 hPa 0,0 l/m 0 min 0 min 0 W/m 0,0 km/h (0 Bft) 98,31 %
14.01.2021 20:46 -0,1 C -1,1 C -2,7 C 89 % 1020,1 hPa 0,0 l/m 0 min 0 min 0 W/m 0,0 km/h (0 Bft) 94,29 %
14.01.2021 20:48 -0,1 C -1,1 C -2,7 C 89 % 1020,2 hPa 0,0 l/m 0 min 0 min 0 W/m 0,0 km/h (0 Bft) 98,31 %
14.01.2021 20:50 -0,1 C -1,1 C -2,7 C 89 % 1020,1 hPa 0,0 l/m 0 min 0 min 0 W/m 0,0 km/h (0 Bft) 91,30 %
14.01.2021 20:52 -0,2 C -1,1 C -2,7 C 89 % 1020,1 hPa 0,0 l/m 0 min 0 min 0 W/m 0,0 km/h (0 Bft) 97,87 %
14.01.2021 20:54 -0,2 C -1,1 C -2,7 C 89 % 1020,1 hPa 0,0 l/m 0 min 0 min 0 W/m 0,0 km/h (0 Bft) 97,67 %
14.01.2021 20:56 -0,2 C -1,1 C -2,7 C 89 % 1020,1 hPa 0,0 l/m 0 min 0 min 0 W/m 0,0 km/h (0 Bft) 95,74 %
14.01.2021 20:58 -0,2 C -1,1 C -2,7 C 89 % 1020,1 hPa 0,0 l/m 0 min 0 min 0 W/m 0,0 km/h (0 Bft) 97,87 %
14.01.2021 21:00 -0,2 C -1,1 C -2,7 C 89 % 1020,2 hPa 0,0 l/m 0 min 0 min 0 W/m 0,0 km/h (0 Bft) 97,87 %
14.01.2021 21:02 -0,2 C -1,1 C -2,7 C 90 % 1020,2 hPa 0,0 l/m 0 min 0 min 0 W/m 0,0 km/h (0 Bft) 97,87 %
14.01.2021 21:04 -0,2 C -1,1 C -2,7 C 90 % 1020,2 hPa 0,0 l/m 0 min 0 min 0 W/m 0,0 km/h (0 Bft) 97,87 %
14.01.2021 21:06 -0,3 C -1,1 C -2,7 C 90 % 1020,2 hPa 0,0 l/m 0 min 0 min 0 W/m 0,0 km/h (0 Bft) 100,00 %
14.01.2021 21:08 -0,3 C -1,1 C -2,7 C 90 % 1020,3 hPa 0,0 l/m 0 min 0 min 0 W/m 0,0 km/h (0 Bft) 97,87 %
14.01.2021 21:10 -0,3 C -1,1 C -2,7 C 90 % 1020,2 hPa 0,0 l/m 0 min 0 min 0 W/m 0,0 km/h (0 Bft) 97,87 %
14.01.2021 21:12 -0,3 C -1,1 C -2,7 C 90 % 1020,3 hPa 0,0 l/m 0 min 0 min 0 W/m 0,0 km/h (0 Bft) 93,62 %
14.01.2021 21:14 -0,3 C -1,1 C -2,7 C 90 % 1020,4 hPa 0,0 l/m 0 min 0 min 0 W/m 0,0 km/h (0 Bft) 97,87 %
14.01.2021 21:16 -0,3 C -1,1 C -2,7 C 90 % 1020,4 hPa 0,0 l/m 0 min 0 min 0 W/m 0,0 km/h (0 Bft) 97,87 %
14.01.2021 21:18 -0,4 C -1,1 C -2,7 C 90 % 1020,4 hPa 0,0 l/m 0 min 0 min 0 W/m 0,0 km/h (0 Bft) 97,83 %
14.01.2021 21:20 -0,4 C -1,1 C -2,7 C 90 % 1020,4 hPa 0,0 l/m 0 min 0 min 0 W/m 0,0 km/h (0 Bft) 95,74 %
14.01.2021 21:22 -0,4 C -1,1 C -2,7 C 90 % 1020,4 hPa 0,0 l/m 0 min 0 min 0 W/m 0,0 km/h (0 Bft) 97,87 %
14.01.2021 21:24 -0,4 C -1,1 C -2,7 C 90 % 1020,4 hPa 0,0 l/m 0 min 0 min 0 W/m 0,0 km/h (0 Bft) 97,87 %
14.01.2021 21:26 -0,4 C -1,1 C -2,7 C 90 % 1020,4 hPa 0,0 l/m 0 min 0 min 0 W/m 0,0 km/h (0 Bft) 95,74 %
14.01.2021 21:28 -0,4 C -1,1 C -2,7 C 90 % 1020,5 hPa 0,0 l/m 0 min 0 min 0 W/m 0,0 km/h (0 Bft) 93,62 %
14.01.2021 21:30 -0,4 C -1,1 C -2,7 C 90 % 1020,5 hPa 0,0 l/m 0 min 0 min 0 W/m 0,0 km/h (0 Bft) 93,48 %
14.01.2021 21:32 -0,4 C -1,1 C -2,7 C 90 % 1020,5 hPa 0,0 l/m 0 min 0 min 0 W/m 0,0 km/h (0 Bft) 95,74 %
14.01.2021 21:34 -0,4 C -1,1 C -2,7 C 90 % 1020,5 hPa 0,0 l/m 0 min 0 min 0 W/m 0,0 km/h (0 Bft) 95,74 %
14.01.2021 21:36 -0,4 C -1,1 C -2,7 C 90 % 1020,6 hPa 0,0 l/m 0 min 0 min 0 W/m 0,0 km/h (0 Bft) 97,87 %
14.01.2021 21:38 -0,4 C -1,1 C -2,7 C 90 % 1020,6 hPa 0,0 l/m 0 min 0 min 0 W/m 0,0 km/h (0 Bft) 100,00 %
14.01.2021 21:40 -0,4 C -1,1 C -2,7 C 91 % 1020,6 hPa 0,0 l/m 0 min 0 min 0 W/m 0,0 km/h (0 Bft) 100,00 %
14.01.2021 21:42 -0,4 C -1,1 C -2,7 C 91 % 1020,6 hPa 0,0 l/m 0 min 0 min 0 W/m 0,0 km/h (0 Bft) 95,65 %
14.01.2021 21:44 -0,4 C -1,1 C -2,7 C 91 % 1020,6 hPa 0,0 l/m 0 min 0 min 0 W/m 0,0 km/h (0 Bft) 97,83 %
14.01.2021 21:46 -0,4 C -1,1 C -2,7 C 91 % 1020,6 hPa 0,0 l/m 0 min 0 min 0 W/m 0,0 km/h (0 Bft) 97,87 %
14.01.2021 21:48 -0,4 C -1,1 C -2,7 C 91 % 1020,6 hPa 0,0 l/m 0 min 0 min 0 W/m 1,6 km/h (1 Bft) 97,87 %
14.01.2021 21:50 -0,4 C -1,1 C -2,7 C 91 % 1020,7 hPa 0,0 l/m 0 min 0 min 0 W/m 1,6 km/h (1 Bft) 97,87 %
14.01.2021 21:52 -0,4 C -1,1 C -2,7 C 91 % 1020,7 hPa 0,0 l/m 0 min 0 min 0 W/m 0,0 km/h (0 Bft) 97,87 %
14.01.2021 21:54 -0,4 C -1,1 C -2,7 C 91 % 1020,7 hPa 0,0 l/m 0 min 0 min 0 W/m 0,0 km/h (0 Bft) 97,83 %
14.01.2021 21:56 -0,4 C -1,1 C -2,7 C 91 % 1020,7 hPa 0,0 l/m 0 min 0 min 0 W/m 0,0 km/h (0 Bft) 97,87 %
14.01.2021 21:58 -0,4 C -1,1 C -2,7 C 91 % 1020,7 hPa 0,0 l/m 0 min 0 min 0 W/m 0,0 km/h (0 Bft) 97,87 %
14.01.2021 22:01 -0,4 C -1,1 C -2,7 C 91 % 1020,7 hPa 0,0 l/m 0 min 0 min 0 W/m 0,0 km/h (0 Bft) 94,29 %
14.01.2021 22:02 -0,4 C -1,1 C -2,7 C 91 % 1020,7 hPa 0,0 l/m 0 min 0 min 0 W/m 0,0 km/h (0 Bft) 100,00 %
14.01.2021 22:04 -0,4 C -1,1 C -2,7 C 91 % 1020,7 hPa 0,0 l/m 0 min 0 min 0 W/m 0,0 km/h (0 Bft) 97,87 %
14.01.2021 22:06 -0,4 C -1,1 C -2,7 C 91 % 1020,8 hPa 0,0 l/m 0 min 0 min 0 W/m 0,0 km/h (0 Bft) 97,83 %
14.01.2021 22:08 -0,4 C -1,1 C -2,7 C 91 % 1020,8 hPa 0,0 l/m 0 min 0 min 0 W/m 0,0 km/h (0 Bft) 97,87 %
14.01.2021 22:10 -0,4 C -1,1 C -2,7 C 91 % 1020,8 hPa 0,0 l/m 0 min 0 min 0 W/m 0,0 km/h (0 Bft) 97,87 %
14.01.2021 22:12 -0,4 C -1,1 C -2,7 C 91 % 1020,8 hPa 0,0 l/m 0 min 0 min 0 W/m 0,0 km/h (0 Bft) 97,87 %
14.01.2021 22:14 -0,4 C -1,1 C -2,7 C 91 % 1020,8 hPa 0,0 l/m 0 min 0 min 0 W/m 0,0 km/h (0 Bft) 93,62 %
14.01.2021 22:16 -0,4 C -1,1 C -2,7 C 91 % 1020,8 hPa 0,0 l/m 0 min 0 min 0 W/m 0,0 km/h (0 Bft) 97,83 %
14.01.2021 22:18 -0,4 C -1,1 C -2,7 C 91 % 1020,8 hPa 0,0 l/m 0 min 0 min 0 W/m 0,0 km/h (0 Bft) 97,87 %
14.01.2021 22:20 -0,4 C -1,1 C -2,7 C 91 % 1020,8 hPa 0,0 l/m 0 min 0 min 0 W/m 0,0 km/h (0 Bft) 97,87 %
14.01.2021 22:22 -0,4 C -1,1 C -2,7 C 91 % 1020,8 hPa 0,0 l/m 0 min 0 min 0 W/m 0,0 km/h (0 Bft) 100,00 %
14.01.2021 22:24 -0,4 C -1,1 C -2,7 C 91 % 1020,9 hPa 0,0 l/m 0 min 0 min 0 W/m 0,0 km/h (0 Bft) 100,00 %
14.01.2021 22:26 -0,4 C -1,1 C -2,7 C 91 % 1020,9 hPa 0,0 l/m 0 min 0 min 0 W/m 0,0 km/h (0 Bft) 100,00 %
14.01.2021 22:28 -0,4 C -1,1 C -2,7 C 91 % 1020,9 hPa 0,0 l/m 0 min 0 min 0 W/m 0,0 km/h (0 Bft) 100,00 %
14.01.2021 22:30 -0,4 C -1,1 C -2,7 C 91 % 1020,9 hPa 0,0 l/m 0 min 0 min 0 W/m 0,0 km/h (0 Bft) 100,00 %
14.01.2021 22:32 -0,4 C -1,1 C -2,7 C 91 % 1020,9 hPa 0,0 l/m 0 min 0 min 0 W/m 0,0 km/h (0 Bft) 100,00 %
14.01.2021 22:34 -0,4 C -1,1 C -2,7 C 91 % 1021,0 hPa 0,0 l/m 0 min 0 min 0 W/m 0,0 km/h (0 Bft) 100,00 %
14.01.2021 22:36 -0,4 C -1,1 C -2,7 C 91 % 1021,0 hPa 0,0 l/m 0 min 0 min 0 W/m 0,0 km/h (0 Bft) 100,00 %
14.01.2021 22:38 -0,5 C -1,1 C -2,7 C 91 % 1021,0 hPa 0,0 l/m 0 min 0 min 0 W/m 0,0 km/h (0 Bft) 100,00 %
14.01.2021 22:40 -0,5 C -1,1 C -3,3 C 91 % 1021,0 hPa 0,0 l/m 0 min 0 min 0 W/m 0,0 km/h (0 Bft) 97,83 %
14.01.2021 22:42 -0,5 C -1,1 C -3,3 C 91 % 1021,0 hPa 0,0 l/m 0 min 0 min 0 W/m 0,0 km/h (0 Bft) 100,00 %
14.01.2021 22:44 -0,5 C -1,1 C -3,3 C 91 % 1021,1 hPa 0,0 l/m 0 min 0 min 0 W/m 0,0 km/h (0 Bft) 100,00 %
14.01.2021 22:46 -0,5 C -1,1 C -3,3 C 91 % 1021,1 hPa 0,0 l/m 0 min 0 min 0 W/m 0,0 km/h (0 Bft) 97,87 %
14.01.2021 22:48 -0,5 C -1,1 C -3,3 C 91 % 1021,1 hPa 0,0 l/m 0 min 0 min 0 W/m 0,0 km/h (0 Bft) 100,00 %
14.01.2021 22:50 -0,5 C -1,1 C -3,3 C 91 % 1021,1 hPa 0,0 l/m 0 min 0 min 0 W/m 0,0 km/h (0 Bft) 100,00 %
14.01.2021 22:52 -0,6 C -1,1 C -3,3 C 91 % 1021,1 hPa 0,0 l/m 0 min 0 min 0 W/m 0,0 km/h (0 Bft) 97,83 %
14.01.2021 22:54 -0,6 C -1,1 C -3,3 C 91 % 1021,1 hPa 0,0 l/m 0 min 0 min 0 W/m 0,0 km/h (0 Bft) 100,00 %
14.01.2021 22:56 -0,6 C -1,1 C -3,3 C 91 % 1021,2 hPa 0,0 l/m 0 min 0 min 0 W/m 0,0 km/h (0 Bft) 100,00 %
14.01.2021 22:58 -0,6 C -1,1 C -3,3 C 91 % 1021,1 hPa 0,0 l/m 0 min 0 min 0 W/m 0,0 km/h (0 Bft) 100,00 %
14.01.2021 23:00 -0,6 C -1,1 C -3,3 C 91 % 1021,1 hPa 0,0 l/m 0 min 0 min 0 W/m 0,0 km/h (0 Bft) 100,00 %
14.01.2021 23:02 -0,6 C -1,1 C -3,3 C 91 % 1021,1 hPa 0,0 l/m 0 min 0 min 0 W/m 0,0 km/h (0 Bft) 96,08 %
14.01.2021 23:04 -0,6 C -1,1 C -3,3 C 91 % 1021,1 hPa 0,0 l/m 0 min 0 min 0 W/m 0,0 km/h (0 Bft) 100,00 %
14.01.2021 23:06 -0,6 C -1,1 C -3,3 C 91 % 1021,1 hPa 0,0 l/m 0 min 0 min 0 W/m 0,0 km/h (0 Bft) 100,00 %
14.01.2021 23:08 -0,6 C -1,1 C -3,3 C 91 % 1021,2 hPa 0,0 l/m 0 min 0 min 0 W/m 0,0 km/h (0 Bft) 100,00 %
14.01.2021 23:10 -0,6 C -1,1 C -3,3 C 91 % 1021,2 hPa 0,0 l/m 0 min 0 min 0 W/m 0,0 km/h (0 Bft) 100,00 %
14.01.2021 23:12 -0,7 C -1,7 C -3,3 C 91 % 1021,2 hPa 0,0 l/m 0 min 0 min 0 W/m 0,0 km/h (0 Bft) 100,00 %
14.01.2021 23:14 -0,7 C -1,7 C -3,3 C 91 % 1021,2 hPa 0,0 l/m 0 min 0 min 0 W/m 0,0 km/h (0 Bft) 100,00 %
14.01.2021 23:16 -0,7 C -1,7 C -3,3 C 91 % 1021,3 hPa 0,0 l/m 0 min 0 min 0 W/m 0,0 km/h (0 Bft) 100,00 %
14.01.2021 23:18 -0,7 C -1,7 C -3,3 C 91 % 1021,3 hPa 0,0 l/m 0 min 0 min 0 W/m 0,0 km/h (0 Bft) 100,00 %
14.01.2021 23:20 -0,7 C -1,7 C -3,3 C 91 % 1021,3 hPa 0,0 l/m 0 min 0 min 0 W/m 0,0 km/h (0 Bft) 100,00 %
14.01.2021 23:22 -0,7 C -1,7 C -3,3 C 91 % 1021,4 hPa 0,0 l/m 0 min 0 min 0 W/m 0,0 km/h (0 Bft) 100,00 %
14.01.2021 23:24 -0,7 C -1,7 C -3,3 C 91 % 1021,3 hPa 0,0 l/m 0 min 0 min 0 W/m 0,0 km/h (0 Bft) 100,00 %
14.01.2021 23:26 -0,8 C -1,7 C -3,3 C 91 % 1021,4 hPa 0,0 l/m 0 min 0 min 0 W/m 0,0 km/h (0 Bft) 100,00 %
14.01.2021 23:28 -0,8 C -1,7 C -3,3 C 91 % 1021,4 hPa 0,0 l/m 0 min 0 min 0 W/m 0,0 km/h (0 Bft) 100,00 %
14.01.2021 23:30 -0,8 C -1,7 C -3,3 C 91 % 1021,4 hPa 0,0 l/m 0 min 0 min 0 W/m 0,0 km/h (0 Bft) 100,00 %
14.01.2021 23:32 -0,9 C -1,7 C -3,3 C 91 % 1021,5 hPa 0,0 l/m 0 min 0 min 0 W/m 0,0 km/h (0 Bft) 97,87 %
14.01.2021 23:34 -0,9 C -1,7 C -3,3 C 91 % 1021,4 hPa 0,0 l/m 0 min 0 min 0 W/m 0,0 km/h (0 Bft) 100,00 %
14.01.2021 23:36 -0,9 C -1,7 C -3,3 C 91 % 1021,5 hPa 0,0 l/m 0 min 0 min 0 W/m 0,0 km/h (0 Bft) 100,00 %
14.01.2021 23:38 -0,9 C -1,7 C -3,3 C 91 % 1021,5 hPa 0,0 l/m 0 min 0 min 0 W/m 0,0 km/h (0 Bft) 100,00 %
14.01.2021 23:40 -0,9 C -1,7 C -3,3 C 91 % 1021,5 hPa 0,0 l/m 0 min 0 min 0 W/m 0,0 km/h (0 Bft) 63,83 %
14.01.2021 23:42 -0,9 C -1,7 C -3,3 C 91 % 1021,5 hPa 0,0 l/m 0 min 0 min 0 W/m 0,0 km/h (0 Bft) 88,89 %
14.01.2021 23:44 -0,9 C -1,7 C -3,3 C 91 % 1021,6 hPa 0,0 l/m 0 min 0 min 0 W/m 0,0 km/h (0 Bft) 97,87 %
14.01.2021 23:46 -0,9 C -1,7 C -3,3 C 91 % 1021,6 hPa 0,0 l/m 0 min 0 min 0 W/m 0,0 km/h (0 Bft) 100,00 %
14.01.2021 23:48 -1,0 C -1,7 C -3,3 C 91 % 1021,6 hPa 0,0 l/m 0 min 0 min 0 W/m 0,0 km/h (0 Bft) 97,87 %
14.01.2021 23:50 -1,0 C -1,7 C -3,3 C 91 % 1021,6 hPa 0,0 l/m 0 min 0 min 0 W/m 0,0 km/h (0 Bft) 97,83 %
14.01.2021 23:52 -1,0 C -1,7 C -3,3 C 91 % 1021,6 hPa 0,0 l/m 0 min 0 min 0 W/m 0,0 km/h (0 Bft) 95,74 %
14.01.2021 23:54 -1,0 C -1,7 C -3,3 C 91 % 1021,6 hPa 0,0 l/m 0 min 0 min 0 W/m 0,0 km/h (0 Bft) 97,87 %
14.01.2021 23:56 -1,0 C -1,7 C -3,3 C 91 % 1021,6 hPa 0,0 l/m 0 min 0 min 0 W/m 0,0 km/h (0 Bft) 94,74 %
14.01.2021 23:58 -1,0 C -1,7 C -3,3 C 91 % 1021,7 hPa 0,0 l/m 0 min 0 min 0 W/m 0,0 km/h (0 Bft) 95,74 %
_ Min-Zeit 23:48 23:12 22:40 14:54 00:08 - - - - 00:04 14:08
Minimum _ -1,0 C -1,7 C -3,3 C 80 % 1016,4 hPa - - - - 0,0 km/h (0 Bft) 46,81 %
_ Max-Zeit 00:00 14:32 13:46 00:00 23:58 00:00 00:00 00:00 13:20 00:18 00:00
Maximum _ 3,3 C 4,4 C 2,8 C 95 % 1021,7 hPa 0,0 l/m 0 min 0 min 134 W/m 3,2 km/h
N (1 Bft)
100,00 %
Durchschnitt _ 1,6 C 1,2 C -0,2 C 88 % 1019,3 hPa #0,0 l/m #0 min. #0 min. 73 W/m 0,1 km/h (0 Bft) 96,01 %
© 2021 W. Hausmann